SVA020 KJFK-OEJN
Flight info
| Callsign | SVA020 |
|---|---|
| Flight time | N/A |
| Altitude | 33000 |
| Route | MERIT DCT HFD DCT PUT DCT WITCH DCT ALLEX N565B TUDEP/M083F340 NATX BEXET/N0469F350 DCT DIRUM DCT MORAG DCT NUCHU L607 BIG L15 MOTOX DCT RUCAC DCT LESDO DCT ETINO DCT DEVDI DCT RIPUS/N0469F370 DCT RESIA DCT LABIN DCT VAKSU DCT RODON DCT DIMIS DCT SALUN N705 BOPIX N710 TAKRI P751 LXR M999 MUVOL |
| Aircraft | B77W/H-SDE1E2E3FGHIJ2J3J4J5M1RWXY/LB1D1 |
Departure
| Time | N/A |
|---|---|
| Airport | John F. Kennedy International Airport (KJFK) |
Arrival
| Time | 2026-04-28 10:50 |
|---|---|
| Airport | King Abdulaziz International Airport (OEJN) |
| Time | Latitude | Longitude | Altitude | Speed | Heading |
|---|---|---|---|---|---|
| 2026-04-28 04:01 | 54.51632 | -17.42328 | 33359 ft | 481 kts | 112° |
| 2026-04-28 04:01 | 54.50540 | -17.36891 | 33364 ft | 481 kts | 112° |
| 2026-04-28 04:01 | 54.48341 | -17.25989 | 33364 ft | 481 kts | 112° |
| 2026-04-28 04:02 | 54.46133 | -17.15100 | 33699 ft | 483 kts | 112° |
| 2026-04-28 04:02 | 54.45038 | -17.09731 | 34099 ft | 481 kts | 112° |
| 2026-04-28 04:02 | 54.43936 | -17.04326 | 34490 ft | 478 kts | 112° |
| 2026-04-28 04:03 | 54.42834 | -16.98939 | 34828 ft | 476 kts | 112° |
| 2026-04-28 04:03 | 54.41735 | -16.93581 | 35128 ft | 475 kts | 112° |
| 2026-04-28 04:03 | 54.40634 | -16.88235 | 35312 ft | 476 kts | 112° |
| 2026-04-28 04:03 | 54.39525 | -16.82865 | 35342 ft | 477 kts | 112° |
| 2026-04-28 04:04 | 54.37308 | -16.72164 | 35376 ft | 475 kts | 112° |
| 2026-04-28 04:04 | 54.35091 | -16.61520 | 35385 ft | 472 kts | 112° |
| 2026-04-28 04:05 | 54.32875 | -16.50940 | 35391 ft | 471 kts | 112° |
| 2026-04-28 04:05 | 54.30656 | -16.40403 | 35392 ft | 471 kts | 112° |
| 2026-04-28 04:06 | 54.28425 | -16.29860 | 35407 ft | 471 kts | 112° |
| 2026-04-28 04:06 | 54.26181 | -16.19312 | 35403 ft | 472 kts | 112° |
| 2026-04-28 04:07 | 54.23924 | -16.08753 | 35400 ft | 474 kts | 112° |
| 2026-04-28 04:07 | 54.21664 | -15.98240 | 35399 ft | 475 kts | 112° |
| 2026-04-28 04:08 | 54.19378 | -15.87657 | 35407 ft | 475 kts | 112° |
| 2026-04-28 04:08 | 54.17080 | -15.77071 | 35414 ft | 476 kts | 112° |
| 2026-04-28 04:09 | 54.14770 | -15.66485 | 35407 ft | 476 kts | 112° |
| 2026-04-28 04:09 | 54.12453 | -15.55921 | 35403 ft | 475 kts | 112° |
| 2026-04-28 04:10 | 54.10130 | -15.45382 | 35408 ft | 475 kts | 112° |
| 2026-04-28 04:10 | 54.07795 | -15.34842 | 35418 ft | 475 kts | 112° |
| 2026-04-28 04:11 | 54.05456 | -15.24332 | 35418 ft | 474 kts | 112° |
| 2026-04-28 04:11 | 54.03125 | -15.13899 | 35410 ft | 474 kts | 112° |
| 2026-04-28 04:12 | 54.00938 | -15.03320 | 35404 ft | 475 kts | 104° |
| 2026-04-28 04:12 | 53.99950 | -14.92233 | 35420 ft | 475 kts | 92° |
| 2026-04-28 04:13 | 53.99964 | -14.80993 | 35427 ft | 476 kts | 89° |
| 2026-04-28 04:13 | 54.00046 | -14.69734 | 35426 ft | 476 kts | 90° |
| 2026-04-28 04:14 | 54.00083 | -14.58472 | 35431 ft | 477 kts | 90° |
| 2026-04-28 04:14 | 54.00089 | -14.47191 | 35422 ft | 477 kts | 90° |
| 2026-04-28 04:15 | 54.00081 | -14.35986 | 35427 ft | 477 kts | 90° |
| 2026-04-28 04:16 | 54.00055 | -14.19068 | 35429 ft | 477 kts | 90° |
| 2026-04-28 04:16 | 54.00026 | -14.07794 | 35431 ft | 476 kts | 90° |
| 2026-04-28 04:17 | 53.99724 | -13.96557 | 35428 ft | 476 kts | 98° |
| 2026-04-28 04:17 | 53.98571 | -13.85487 | 35428 ft | 475 kts | 100° |
| 2026-04-28 04:18 | 53.97358 | -13.74452 | 35429 ft | 475 kts | 100° |
| 2026-04-28 04:18 | 53.96176 | -13.63491 | 35430 ft | 474 kts | 100° |
| 2026-04-28 04:19 | 53.95000 | -13.52474 | 35427 ft | 474 kts | 100° |
| 2026-04-28 04:19 | 53.93820 | -13.41455 | 35431 ft | 474 kts | 99° |
| 2026-04-28 04:20 | 53.92634 | -13.30476 | 35428 ft | 473 kts | 99° |
| 2026-04-28 04:20 | 53.91436 | -13.19491 | 35431 ft | 473 kts | 99° |
| 2026-04-28 04:21 | 53.90228 | -13.08526 | 35430 ft | 473 kts | 99° |
| 2026-04-28 04:21 | 53.89010 | -12.97566 | 35432 ft | 473 kts | 99° |
| 2026-04-28 04:22 | 53.87781 | -12.86611 | 35430 ft | 473 kts | 99° |
| 2026-04-28 04:22 | 53.86544 | -12.75668 | 35433 ft | 473 kts | 99° |
| 2026-04-28 04:23 | 53.85295 | -12.64722 | 35432 ft | 473 kts | 99° |
| 2026-04-28 04:23 | 53.84039 | -12.53797 | 35431 ft | 473 kts | 99° |
| 2026-04-28 04:24 | 53.82778 | -12.42928 | 35427 ft | 473 kts | 99° |
| 2026-04-28 04:24 | 53.81499 | -12.31998 | 35434 ft | 473 kts | 99° |
| 2026-04-28 04:25 | 53.80209 | -12.21063 | 35429 ft | 474 kts | 99° |
| 2026-04-28 04:25 | 53.78908 | -12.10129 | 35433 ft | 474 kts | 99° |
| 2026-04-28 04:26 | 53.77600 | -11.99217 | 35429 ft | 474 kts | 99° |
| 2026-04-28 04:26 | 53.76287 | -11.88366 | 35431 ft | 474 kts | 99° |
| 2026-04-28 04:27 | 53.74959 | -11.77466 | 35427 ft | 474 kts | 99° |
| 2026-04-28 04:27 | 53.73620 | -11.66573 | 35430 ft | 473 kts | 99° |
| 2026-04-28 04:28 | 53.72492 | -11.57459 | 35430 ft | 473 kts | 99° |
| 2026-04-28 04:28 | 53.71145 | -11.46656 | 35430 ft | 473 kts | 99° |
| 2026-04-28 04:29 | 53.69778 | -11.35781 | 35426 ft | 473 kts | 99° |
| 2026-04-28 04:29 | 53.68405 | -11.24941 | 35431 ft | 473 kts | 99° |
| 2026-04-28 04:30 | 53.67021 | -11.14093 | 35427 ft | 472 kts | 99° |
| 2026-04-28 04:30 | 53.65628 | -11.03270 | 35431 ft | 472 kts | 99° |
| 2026-04-28 04:31 | 53.64226 | -10.92450 | 35427 ft | 472 kts | 99° |
| 2026-04-28 04:31 | 53.62814 | -10.81639 | 35427 ft | 472 kts | 99° |
| 2026-04-28 04:32 | 53.61392 | -10.70833 | 35420 ft | 472 kts | 99° |
| 2026-04-28 04:32 | 53.59960 | -10.60030 | 35424 ft | 472 kts | 99° |
| 2026-04-28 04:33 | 53.58527 | -10.49305 | 35426 ft | 473 kts | 99° |
| 2026-04-28 04:33 | 53.57075 | -10.38512 | 35414 ft | 473 kts | 99° |
| 2026-04-28 04:34 | 53.55614 | -10.27733 | 35425 ft | 473 kts | 99° |
| 2026-04-28 04:34 | 53.54137 | -10.16921 | 35427 ft | 474 kts | 99° |
| 2026-04-28 04:35 | 53.52651 | -10.06114 | 35436 ft | 474 kts | 99° |
| 2026-04-28 04:35 | 53.51151 | -9.95295 | 35422 ft | 475 kts | 99° |
| 2026-04-28 04:36 | 53.49646 | -9.84501 | 35424 ft | 475 kts | 99° |
| 2026-04-28 04:36 | 53.48140 | -9.73783 | 35424 ft | 474 kts | 99° |
| 2026-04-28 04:37 | 53.46614 | -9.63009 | 35422 ft | 474 kts | 99° |
| 2026-04-28 04:37 | 53.45081 | -9.52259 | 35430 ft | 473 kts | 99° |
| 2026-04-28 04:38 | 53.43538 | -9.41508 | 35416 ft | 474 kts | 99° |
| 2026-04-28 04:38 | 53.41988 | -9.30779 | 35427 ft | 473 kts | 99° |
| 2026-04-28 04:39 | 53.40429 | -9.20067 | 35426 ft | 473 kts | 99° |
| 2026-04-28 04:39 | 53.38858 | -9.09349 | 35421 ft | 474 kts | 99° |
| 2026-04-28 04:40 | 53.37288 | -8.98710 | 35414 ft | 474 kts | 99° |
| 2026-04-28 04:40 | 53.35697 | -8.87998 | 35421 ft | 474 kts | 99° |
| 2026-04-28 04:41 | 53.34097 | -8.77298 | 35417 ft | 474 kts | 99° |
| 2026-04-28 04:41 | 53.32485 | -8.66590 | 35421 ft | 474 kts | 99° |
| 2026-04-28 04:42 | 53.30865 | -8.55907 | 35414 ft | 474 kts | 99° |
| 2026-04-28 04:42 | 53.29237 | -8.45236 | 35409 ft | 474 kts | 99° |
| 2026-04-28 04:43 | 53.27597 | -8.34561 | 35409 ft | 473 kts | 99° |
| 2026-04-28 04:43 | 53.25951 | -8.23911 | 35414 ft | 474 kts | 99° |
| 2026-04-28 04:44 | 53.24293 | -8.13250 | 35412 ft | 474 kts | 99° |
| 2026-04-28 04:44 | 53.22638 | -8.02687 | 35409 ft | 474 kts | 100° |
| 2026-04-28 04:45 | 53.20962 | -7.92055 | 35407 ft | 474 kts | 100° |
| 2026-04-28 04:45 | 53.19274 | -7.81412 | 35405 ft | 474 kts | 100° |
| 2026-04-28 04:46 | 53.17576 | -7.70772 | 35405 ft | 474 kts | 100° |
| 2026-04-28 04:46 | 53.15881 | -7.60220 | 35404 ft | 475 kts | 100° |
| 2026-04-28 04:47 | 53.14162 | -7.49588 | 35408 ft | 475 kts | 100° |
| 2026-04-28 04:47 | 53.12430 | -7.38943 | 35403 ft | 476 kts | 101° |
| 2026-04-28 04:48 | 53.10690 | -7.28311 | 35405 ft | 476 kts | 101° |
| 2026-04-28 04:48 | 53.08939 | -7.17676 | 35404 ft | 476 kts | 101° |
| 2026-04-28 04:49 | 53.07174 | -7.07027 | 35400 ft | 477 kts | 101° |
| 2026-04-28 04:49 | 53.05403 | -6.96406 | 35403 ft | 477 kts | 101° |
| 2026-04-28 04:50 | 53.03633 | -6.85845 | 35397 ft | 478 kts | 101° |
| 2026-04-28 04:50 | 53.01843 | -6.75215 | 35398 ft | 478 kts | 101° |
| 2026-04-28 04:51 | 53.00011 | -6.64604 | 35396 ft | 479 kts | 104° |
| 2026-04-28 04:51 | 52.97834 | -6.54110 | 35399 ft | 481 kts | 105° |
| 2026-04-28 04:52 | 52.95582 | -6.43667 | 35385 ft | 481 kts | 105° |
| 2026-04-28 04:52 | 52.93346 | -6.33227 | 35395 ft | 481 kts | 105° |
| 2026-04-28 04:53 | 52.91114 | -6.22764 | 35389 ft | 481 kts | 105° |
| 2026-04-28 04:53 | 52.88878 | -6.12319 | 35392 ft | 481 kts | 106° |
| 2026-04-28 04:54 | 52.86628 | -6.01863 | 35387 ft | 481 kts | 106° |
| 2026-04-28 04:54 | 52.84369 | -5.91428 | 35383 ft | 482 kts | 106° |
| 2026-04-28 04:55 | 52.82119 | -5.81081 | 35382 ft | 482 kts | 107° |
| 2026-04-28 04:55 | 52.79843 | -5.70665 | 35369 ft | 482 kts | 107° |
| 2026-04-28 04:56 | 52.77559 | -5.60252 | 35373 ft | 482 kts | 107° |
| 2026-04-28 04:56 | 52.75229 | -5.49864 | 35378 ft | 483 kts | 110° |
| 2026-04-28 04:57 | 52.72245 | -5.39897 | 35373 ft | 485 kts | 115° |
| 2026-04-28 04:57 | 52.69095 | -5.30033 | 35374 ft | 486 kts | 115° |
| 2026-04-28 04:58 | 52.65956 | -5.20158 | 35375 ft | 486 kts | 115° |
| 2026-04-28 04:58 | 52.62835 | -5.10276 | 35371 ft | 487 kts | 115° |
| 2026-04-28 04:59 | 52.59707 | -5.00378 | 35369 ft | 487 kts | 115° |
| 2026-04-28 04:59 | 52.56589 | -4.90547 | 35367 ft | 487 kts | 116° |
| 2026-04-28 05:00 | 52.53442 | -4.80673 | 35363 ft | 487 kts | 116° |
| 2026-04-28 05:00 | 52.50290 | -4.70826 | 35365 ft | 488 kts | 116° |
| 2026-04-28 05:01 | 52.47121 | -4.60965 | 35366 ft | 488 kts | 116° |
| 2026-04-28 05:01 | 52.43946 | -4.51127 | 35364 ft | 488 kts | 117° |
| 2026-04-28 05:02 | 52.40784 | -4.41366 | 35360 ft | 488 kts | 117° |
| 2026-04-28 05:02 | 52.37595 | -4.31570 | 35359 ft | 487 kts | 117° |
| 2026-04-28 05:03 | 52.34404 | -4.21793 | 35360 ft | 488 kts | 117° |
| 2026-04-28 05:03 | 52.31196 | -4.12003 | 35367 ft | 488 kts | 117° |
| 2026-04-28 05:04 | 52.27980 | -4.02231 | 35361 ft | 488 kts | 118° |
| 2026-04-28 05:04 | 52.24758 | -3.92481 | 35358 ft | 488 kts | 118° |
| 2026-04-28 05:05 | 52.21529 | -3.82750 | 35354 ft | 487 kts | 118° |
| 2026-04-28 05:05 | 52.18312 | -3.73090 | 35357 ft | 487 kts | 118° |
| 2026-04-28 05:06 | 52.15057 | -3.63354 | 35354 ft | 486 kts | 118° |
| 2026-04-28 05:06 | 52.11841 | -3.53774 | 35352 ft | 485 kts | 118° |
| 2026-04-28 05:07 | 52.08598 | -3.44148 | 35343 ft | 484 kts | 118° |
| 2026-04-28 05:07 | 52.05352 | -3.34553 | 35342 ft | 483 kts | 118° |
| 2026-04-28 05:08 | 52.02106 | -3.24993 | 35341 ft | 483 kts | 119° |
| 2026-04-28 05:08 | 51.98852 | -3.15447 | 35357 ft | 483 kts | 119° |
| 2026-04-28 05:09 | 51.95611 | -3.05977 | 35364 ft | 483 kts | 119° |
| 2026-04-28 05:09 | 51.92348 | -2.96476 | 35378 ft | 482 kts | 119° |
| 2026-04-28 05:10 | 51.89078 | -2.86990 | 35383 ft | 483 kts | 119° |
| 2026-04-28 05:10 | 51.85795 | -2.77504 | 35385 ft | 483 kts | 119° |
| 2026-04-28 05:11 | 51.82505 | -2.68033 | 35371 ft | 483 kts | 120° |
| 2026-04-28 05:11 | 51.79207 | -2.58575 | 35361 ft | 483 kts | 120° |
| 2026-04-28 05:12 | 51.75898 | -2.49120 | 35341 ft | 484 kts | 120° |
| 2026-04-28 05:12 | 51.72598 | -2.39725 | 35324 ft | 484 kts | 120° |
| 2026-04-28 05:13 | 51.69274 | -2.30299 | 35310 ft | 484 kts | 120° |
| 2026-04-28 05:13 | 51.65936 | -2.20867 | 35300 ft | 484 kts | 120° |
| 2026-04-28 05:14 | 51.62598 | -2.11469 | 35295 ft | 484 kts | 120° |
| 2026-04-28 05:14 | 51.59249 | -2.02073 | 35294 ft | 484 kts | 120° |
| 2026-04-28 05:15 | 51.55893 | -1.92691 | 35288 ft | 484 kts | 121° |
| 2026-04-28 05:15 | 51.52532 | -1.83322 | 35293 ft | 484 kts | 121° |
| 2026-04-28 05:16 | 51.49730 | -1.75542 | 35288 ft | 484 kts | 121° |
| 2026-04-28 05:16 | 51.46493 | -1.64136 | 35297 ft | 485 kts | 109° |
| 2026-04-28 05:17 | 51.44474 | -1.50093 | 35285 ft | 486 kts | 102° |
| 2026-04-28 05:17 | 51.43048 | -1.39494 | 35272 ft | 486 kts | 103° |
| 2026-04-28 05:18 | 51.41560 | -1.28910 | 35267 ft | 487 kts | 103° |
| 2026-04-28 05:18 | 51.40075 | -1.18312 | 35270 ft | 488 kts | 103° |
| 2026-04-28 05:19 | 51.39128 | -1.07564 | 35271 ft | 488 kts | 95° |
| 2026-04-28 05:19 | 51.38618 | -0.96691 | 35267 ft | 489 kts | 95° |
| 2026-04-28 05:20 | 51.38106 | -0.86038 | 35267 ft | 490 kts | 95° |
| 2026-04-28 05:20 | 51.37546 | -0.75222 | 35271 ft | 490 kts | 95° |
| 2026-04-28 05:21 | 51.36961 | -0.64354 | 35265 ft | 490 kts | 95° |
| 2026-04-28 05:21 | 51.36369 | -0.53541 | 35266 ft | 491 kts | 95° |
| 2026-04-28 05:22 | 51.35766 | -0.42663 | 35272 ft | 491 kts | 95° |
| 2026-04-28 05:22 | 51.35152 | -0.31770 | 35270 ft | 491 kts | 96° |
| 2026-04-28 05:23 | 51.34530 | -0.20897 | 35268 ft | 491 kts | 96° |
| 2026-04-28 05:23 | 51.33899 | -0.10010 | 35269 ft | 492 kts | 96° |
| 2026-04-28 05:24 | 51.33113 | 0.00852 | 35531 ft | 491 kts | 100° |
| 2026-04-28 05:24 | 51.31244 | 0.11192 | 35354 ft | 478 kts | 110° |
| 2026-04-28 05:25 | 51.28702 | 0.20959 | 35273 ft | 474 kts | 111° |
| 2026-04-28 05:25 | 51.27434 | 0.25817 | 35444 ft | 474 kts | 111° |
| 2026-04-28 05:25 | 51.26183 | 0.30642 | 35473 ft | 477 kts | 111° |
| 2026-04-28 05:26 | 51.23641 | 0.40524 | 35492 ft | 485 kts | 111° |
| 2026-04-28 05:26 | 51.21080 | 0.50492 | 35483 ft | 486 kts | 111° |
| 2026-04-28 05:27 | 51.18506 | 0.60463 | 35464 ft | 486 kts | 111° |
| 2026-04-28 05:27 | 51.15917 | 0.70442 | 35405 ft | 486 kts | 111° |
| 2026-04-28 05:28 | 51.13330 | 0.80374 | 35240 ft | 485 kts | 111° |
| 2026-04-28 05:28 | 51.10755 | 0.90219 | 35241 ft | 485 kts | 111° |
| 2026-04-28 05:29 | 51.08157 | 1.00119 | 35244 ft | 485 kts | 111° |
| 2026-04-28 05:29 | 51.05547 | 1.10006 | 35238 ft | 484 kts | 112° |
| 2026-04-28 05:30 | 51.02935 | 1.19869 | 35239 ft | 484 kts | 112° |
| 2026-04-28 05:30 | 51.00318 | 1.29733 | 35234 ft | 484 kts | 112° |
| 2026-04-28 05:31 | 50.97698 | 1.39584 | 35226 ft | 485 kts | 112° |
| 2026-04-28 05:31 | 50.95058 | 1.49438 | 35218 ft | 485 kts | 113° |
| 2026-04-28 05:32 | 50.92377 | 1.59275 | 35213 ft | 486 kts | 113° |
| 2026-04-28 05:32 | 50.89614 | 1.69067 | 35210 ft | 487 kts | 118° |
| 2026-04-28 05:33 | 50.85777 | 1.77902 | 35215 ft | 488 kts | 131° |
| 2026-04-28 05:33 | 50.80978 | 1.85454 | 35211 ft | 488 kts | 137° |
| 2026-04-28 05:34 | 50.76038 | 1.92728 | 35202 ft | 489 kts | 138° |
| 2026-04-28 05:34 | 50.71044 | 2.00134 | 35199 ft | 490 kts | 138° |
| 2026-04-28 05:35 | 50.66127 | 2.07477 | 35191 ft | 490 kts | 138° |
| 2026-04-28 05:35 | 50.61169 | 2.14882 | 35181 ft | 491 kts | 138° |
| 2026-04-28 05:36 | 50.56203 | 2.22276 | 35172 ft | 491 kts | 138° |
| 2026-04-28 05:36 | 50.51229 | 2.29653 | 35169 ft | 491 kts | 138° |
| 2026-04-28 05:37 | 50.46251 | 2.37014 | 35158 ft | 491 kts | 138° |
| 2026-04-28 05:37 | 50.41300 | 2.44312 | 35158 ft | 491 kts | 139° |
| 2026-04-28 05:38 | 50.36314 | 2.51640 | 35156 ft | 491 kts | 139° |
| 2026-04-28 05:38 | 50.31322 | 2.58955 | 35151 ft | 491 kts | 139° |
| 2026-04-28 05:39 | 50.26323 | 2.66258 | 35147 ft | 491 kts | 139° |
| 2026-04-28 05:39 | 50.21321 | 2.73544 | 35150 ft | 492 kts | 139° |
| 2026-04-28 05:40 | 50.16307 | 2.80825 | 35150 ft | 493 kts | 139° |
| 2026-04-28 05:40 | 50.11306 | 2.88065 | 35152 ft | 494 kts | 139° |
| 2026-04-28 05:41 | 50.06265 | 2.95343 | 35163 ft | 495 kts | 140° |
| 2026-04-28 05:41 | 50.01201 | 3.02633 | 35148 ft | 496 kts | 140° |
| 2026-04-28 05:42 | 49.96131 | 3.09910 | 35144 ft | 496 kts | 140° |
| 2026-04-28 05:42 | 49.91056 | 3.17174 | 35115 ft | 497 kts | 140° |
| 2026-04-28 05:43 | 49.86001 | 3.24394 | 35122 ft | 497 kts | 140° |
| 2026-04-28 05:43 | 49.80948 | 3.31703 | 35106 ft | 498 kts | 137° |
| 2026-04-28 05:44 | 49.76482 | 3.39955 | 35117 ft | 500 kts | 130° |
| 2026-04-28 05:44 | 49.72194 | 3.48416 | 35108 ft | 500 kts | 130° |
| 2026-04-28 05:45 | 49.67877 | 3.56859 | 35102 ft | 501 kts | 131° |
| 2026-04-28 05:45 | 49.63531 | 3.65266 | 35097 ft | 501 kts | 131° |
| 2026-04-28 05:46 | 49.59176 | 3.73643 | 35098 ft | 501 kts | 131° |
| 2026-04-28 05:46 | 49.54807 | 3.82022 | 35086 ft | 501 kts | 131° |
| 2026-04-28 05:47 | 49.50431 | 3.90392 | 35092 ft | 502 kts | 132° |
| 2026-04-28 05:47 | 49.46047 | 3.98753 | 35085 ft | 502 kts | 132° |
| 2026-04-28 05:48 | 49.41653 | 4.07105 | 35084 ft | 502 kts | 132° |
| 2026-04-28 05:48 | 49.37256 | 4.15439 | 35082 ft | 502 kts | 132° |
| 2026-04-28 05:49 | 49.32883 | 4.23699 | 35078 ft | 502 kts | 132° |
| 2026-04-28 05:49 | 49.28472 | 4.32004 | 35075 ft | 502 kts | 133° |
| 2026-04-28 05:50 | 49.24058 | 4.40292 | 35076 ft | 501 kts | 133° |
| 2026-04-28 05:50 | 49.19648 | 4.48545 | 35077 ft | 501 kts | 133° |
| 2026-04-28 05:51 | 49.15225 | 4.56796 | 35071 ft | 501 kts | 133° |
| 2026-04-28 05:51 | 49.10803 | 4.65022 | 35062 ft | 501 kts | 133° |
| 2026-04-28 05:52 | 49.06409 | 4.73170 | 35074 ft | 501 kts | 133° |
| 2026-04-28 05:52 | 49.01941 | 4.81430 | 35066 ft | 501 kts | 133° |
| 2026-04-28 05:53 | 48.97532 | 4.89560 | 35061 ft | 501 kts | 133° |
| 2026-04-28 05:53 | 48.93090 | 4.97730 | 35065 ft | 501 kts | 133° |
| 2026-04-28 05:54 | 48.88667 | 5.05906 | 35064 ft | 502 kts | 131° |
| 2026-04-28 05:54 | 48.84690 | 5.14688 | 35067 ft | 504 kts | 127° |
| 2026-04-28 05:55 | 48.80834 | 5.23508 | 35065 ft | 505 kts | 127° |
| 2026-04-28 05:55 | 48.76929 | 5.32375 | 35072 ft | 506 kts | 128° |
| 2026-04-28 05:56 | 48.72998 | 5.41217 | 35066 ft | 506 kts | 128° |
| 2026-04-28 05:56 | 48.69048 | 5.50055 | 35066 ft | 507 kts | 128° |
| 2026-04-28 05:57 | 48.65083 | 5.58895 | 35071 ft | 508 kts | 128° |
| 2026-04-28 05:57 | 48.61108 | 5.67734 | 35065 ft | 509 kts | 128° |
| 2026-04-28 05:58 | 48.57117 | 5.76580 | 35069 ft | 510 kts | 129° |
| 2026-04-28 05:58 | 48.53106 | 5.85441 | 35056 ft | 511 kts | 129° |
| 2026-04-28 05:59 | 48.49111 | 5.94240 | 35053 ft | 513 kts | 129° |
| 2026-04-28 05:59 | 48.45067 | 6.03115 | 35044 ft | 514 kts | 129° |
| 2026-04-28 06:00 | 48.41017 | 6.11976 | 35048 ft | 515 kts | 129° |
| 2026-04-28 06:00 | 48.36950 | 6.20845 | 35050 ft | 516 kts | 129° |
| 2026-04-28 06:01 | 48.32860 | 6.29732 | 35046 ft | 516 kts | 129° |
| 2026-04-28 06:01 | 48.28758 | 6.38620 | 35053 ft | 517 kts | 129° |
| 2026-04-28 06:02 | 48.24655 | 6.47480 | 35051 ft | 518 kts | 129° |
| 2026-04-28 06:02 | 48.21229 | 6.54857 | 35041 ft | 518 kts | 129° |
| 2026-04-28 06:03 | 48.16399 | 6.65221 | 35047 ft | 518 kts | 129° |
| 2026-04-28 06:03 | 48.12966 | 6.72566 | 35045 ft | 518 kts | 129° |
| 2026-04-28 06:04 | 48.08148 | 6.82839 | 35029 ft | 518 kts | 129° |
| 2026-04-28 06:04 | 48.04683 | 6.90204 | 35036 ft | 516 kts | 129° |
| 2026-04-28 06:05 | 48.00572 | 6.98915 | 35045 ft | 515 kts | 129° |
| 2026-04-28 06:05 | 47.96443 | 7.07636 | 35049 ft | 514 kts | 130° |
| 2026-04-28 06:06 | 47.92314 | 7.16331 | 35054 ft | 513 kts | 130° |
| 2026-04-28 06:06 | 47.88186 | 7.24998 | 35046 ft | 512 kts | 130° |
| 2026-04-28 06:07 | 47.84061 | 7.33627 | 35057 ft | 511 kts | 130° |
| 2026-04-28 06:07 | 47.79930 | 7.42248 | 35059 ft | 510 kts | 130° |
| 2026-04-28 06:08 | 47.75802 | 7.50843 | 35063 ft | 510 kts | 130° |
| 2026-04-28 06:08 | 47.71651 | 7.59390 | 35075 ft | 510 kts | 130° |
| 2026-04-28 06:09 | 47.67458 | 7.67806 | 35071 ft | 510 kts | 131° |
| 2026-04-28 06:09 | 47.63224 | 7.76268 | 35064 ft | 510 kts | 131° |
| 2026-04-28 06:10 | 47.58990 | 7.84738 | 35060 ft | 510 kts | 130° |
| 2026-04-28 06:10 | 47.54769 | 7.93172 | 35056 ft | 510 kts | 131° |
| 2026-04-28 06:11 | 47.50604 | 8.01470 | 35050 ft | 510 kts | 131° |
| 2026-04-28 06:11 | 47.46440 | 8.09740 | 35064 ft | 510 kts | 131° |
| 2026-04-28 06:12 | 47.42423 | 8.17694 | 35066 ft | 510 kts | 131° |
| 2026-04-28 06:12 | 47.38202 | 8.26026 | 35069 ft | 510 kts | 131° |
| 2026-04-28 06:13 | 47.33946 | 8.34406 | 35067 ft | 510 kts | 131° |
| 2026-04-28 06:13 | 47.29687 | 8.42771 | 35076 ft | 510 kts | 131° |
| 2026-04-28 06:14 | 47.25421 | 8.51124 | 35071 ft | 510 kts | 131° |
| 2026-04-28 06:14 | 47.21212 | 8.59561 | 35066 ft | 511 kts | 130° |
| 2026-04-28 06:15 | 47.17044 | 8.68025 | 35061 ft | 511 kts | 130° |
| 2026-04-28 06:15 | 47.12864 | 8.76476 | 35057 ft | 511 kts | 130° |
| 2026-04-28 06:16 | 47.08698 | 8.84845 | 35052 ft | 511 kts | 130° |
| 2026-04-28 06:16 | 47.04497 | 8.93245 | 35060 ft | 511 kts | 130° |
| 2026-04-28 06:17 | 47.00284 | 9.01647 | 35050 ft | 511 kts | 130° |
| 2026-04-28 06:18 | 46.93937 | 9.14262 | 35052 ft | 513 kts | 130° |
| 2026-04-28 06:18 | 46.89718 | 9.22611 | 35053 ft | 514 kts | 130° |
| 2026-04-28 06:19 | 46.85464 | 9.31011 | 35040 ft | 513 kts | 130° |
| 2026-04-28 06:19 | 46.81227 | 9.39350 | 35043 ft | 511 kts | 130° |
| 2026-04-28 06:20 | 46.76983 | 9.47675 | 35070 ft | 511 kts | 130° |
| 2026-04-28 06:20 | 46.72737 | 9.55980 | 35091 ft | 509 kts | 130° |
| 2026-04-28 06:21 | 46.68498 | 9.64249 | 35115 ft | 509 kts | 130° |
| 2026-04-28 06:21 | 46.64246 | 9.72518 | 35127 ft | 509 kts | 130° |
| 2026-04-28 06:22 | 46.60015 | 9.80721 | 35154 ft | 510 kts | 130° |
| 2026-04-28 06:22 | 46.55752 | 9.88969 | 35155 ft | 510 kts | 130° |
| 2026-04-28 06:23 | 46.51479 | 9.97215 | 35148 ft | 510 kts | 130° |
| 2026-04-28 06:23 | 46.47224 | 10.05458 | 35148 ft | 511 kts | 128° |
| 2026-04-28 06:24 | 46.43222 | 10.13982 | 35144 ft | 511 kts | 127° |
| 2026-04-28 06:24 | 46.39268 | 10.22542 | 35130 ft | 510 kts | 127° |
| 2026-04-28 06:25 | 46.35307 | 10.31067 | 35117 ft | 510 kts | 127° |
| 2026-04-28 06:25 | 46.31325 | 10.39574 | 35126 ft | 510 kts | 127° |
| 2026-04-28 06:26 | 46.27346 | 10.48036 | 35129 ft | 508 kts | 127° |
| 2026-04-28 06:26 | 46.23386 | 10.56430 | 35142 ft | 508 kts | 127° |
| 2026-04-28 06:27 | 46.19409 | 10.64840 | 35136 ft | 507 kts | 127° |
| 2026-04-28 06:27 | 46.15427 | 10.73238 | 35150 ft | 506 kts | 127° |
| 2026-04-28 06:28 | 46.11443 | 10.81610 | 35148 ft | 506 kts | 127° |
| 2026-04-28 06:28 | 46.07461 | 10.89955 | 35155 ft | 506 kts | 127° |
| 2026-04-28 06:29 | 46.03467 | 10.98302 | 35154 ft | 505 kts | 127° |
| 2026-04-28 06:29 | 45.99469 | 11.06629 | 35123 ft | 505 kts | 127° |
| 2026-04-28 06:30 | 45.95471 | 11.14933 | 35131 ft | 504 kts | 127° |
| 2026-04-28 06:30 | 45.91491 | 11.23176 | 35112 ft | 505 kts | 127° |
| 2026-04-28 06:31 | 45.87485 | 11.31450 | 35111 ft | 505 kts | 127° |
| 2026-04-28 06:31 | 45.83471 | 11.39715 | 35112 ft | 505 kts | 127° |
| 2026-04-28 06:32 | 45.79448 | 11.47972 | 35099 ft | 505 kts | 127° |
| 2026-04-28 06:32 | 45.75417 | 11.56223 | 35094 ft | 505 kts | 127° |
| 2026-04-28 06:33 | 45.71384 | 11.64456 | 35084 ft | 506 kts | 127° |
| 2026-04-28 06:33 | 45.67332 | 11.72703 | 35077 ft | 506 kts | 127° |
| 2026-04-28 06:34 | 45.63300 | 11.80885 | 35074 ft | 507 kts | 127° |
| 2026-04-28 06:34 | 45.59228 | 11.89124 | 35075 ft | 507 kts | 127° |
| 2026-04-28 06:35 | 45.55156 | 11.97340 | 35076 ft | 507 kts | 127° |
| 2026-04-28 06:35 | 45.51080 | 12.05539 | 35076 ft | 507 kts | 127° |
| 2026-04-28 06:36 | 45.46998 | 12.13729 | 35073 ft | 506 kts | 127° |
| 2026-04-28 06:36 | 45.42910 | 12.21906 | 35079 ft | 506 kts | 127° |
| 2026-04-28 06:37 | 45.38848 | 12.30006 | 35077 ft | 506 kts | 127° |
| 2026-04-28 06:37 | 45.34760 | 12.38137 | 35071 ft | 505 kts | 127° |
| 2026-04-28 06:38 | 45.30664 | 12.46260 | 35067 ft | 505 kts | 127° |
| 2026-04-28 06:38 | 45.26564 | 12.54369 | 35059 ft | 505 kts | 127° |
| 2026-04-28 06:39 | 45.22459 | 12.62464 | 35054 ft | 505 kts | 127° |
| 2026-04-28 06:39 | 45.18369 | 12.70508 | 35057 ft | 505 kts | 127° |
| 2026-04-28 06:40 | 45.14255 | 12.78575 | 35058 ft | 505 kts | 127° |
| 2026-04-28 06:40 | 45.10129 | 12.86647 | 35061 ft | 505 kts | 127° |
| 2026-04-28 06:41 | 45.06001 | 12.94700 | 35062 ft | 505 kts | 127° |
| 2026-04-28 06:41 | 45.01867 | 13.02748 | 35063 ft | 505 kts | 127° |
| 2026-04-28 06:42 | 44.97762 | 13.10722 | 35061 ft | 505 kts | 127° |
| 2026-04-28 06:42 | 44.93665 | 13.18872 | 35065 ft | 505 kts | 126° |
| 2026-04-28 06:43 | 44.89650 | 13.26948 | 35064 ft | 505 kts | 126° |
| 2026-04-28 06:43 | 44.85606 | 13.35053 | 35059 ft | 505 kts | 126° |
| 2026-04-28 06:44 | 44.81548 | 13.43140 | 35066 ft | 505 kts | 127° |
| 2026-04-28 06:44 | 44.77478 | 13.51213 | 35064 ft | 505 kts | 127° |
| 2026-04-28 06:45 | 44.73408 | 13.59266 | 35068 ft | 505 kts | 127° |
| 2026-04-28 06:45 | 44.69331 | 13.67310 | 35069 ft | 505 kts | 127° |
| 2026-04-28 06:46 | 44.65255 | 13.75333 | 35068 ft | 504 kts | 127° |
| 2026-04-28 06:46 | 44.61170 | 13.83349 | 35066 ft | 504 kts | 127° |
| 2026-04-28 06:47 | 44.57113 | 13.91288 | 35066 ft | 504 kts | 127° |
| 2026-04-28 06:47 | 44.53025 | 13.99267 | 35066 ft | 504 kts | 127° |
| 2026-04-28 06:48 | 44.48933 | 14.07231 | 35066 ft | 504 kts | 127° |
| 2026-04-28 06:48 | 44.44833 | 14.15189 | 35066 ft | 503 kts | 127° |
| 2026-04-28 06:49 | 44.40731 | 14.23129 | 35063 ft | 503 kts | 127° |
| 2026-04-28 06:49 | 44.36625 | 14.31055 | 35066 ft | 503 kts | 127° |
| 2026-04-28 06:50 | 44.32521 | 14.38954 | 35064 ft | 502 kts | 127° |
| 2026-04-28 06:50 | 44.28440 | 14.46789 | 35067 ft | 502 kts | 127° |
| 2026-04-28 06:51 | 44.24326 | 14.54665 | 35068 ft | 502 kts | 127° |
| 2026-04-28 06:51 | 44.20215 | 14.62515 | 35066 ft | 501 kts | 127° |
| 2026-04-28 06:52 | 44.16097 | 14.70357 | 35066 ft | 501 kts | 127° |
| 2026-04-28 06:52 | 44.12677 | 14.76854 | 35065 ft | 501 kts | 127° |
| 2026-04-28 06:53 | 44.08557 | 14.84661 | 35069 ft | 500 kts | 127° |
| 2026-04-28 06:53 | 44.04430 | 14.92460 | 35072 ft | 500 kts | 127° |
| 2026-04-28 06:54 | 44.00302 | 15.00240 | 35072 ft | 500 kts | 127° |
| 2026-04-28 06:54 | 43.96169 | 15.08010 | 35089 ft | 500 kts | 127° |
| 2026-04-28 06:55 | 43.92032 | 15.15765 | 35072 ft | 500 kts | 127° |
| 2026-04-28 06:55 | 43.87895 | 15.23501 | 35069 ft | 500 kts | 127° |
| 2026-04-28 06:56 | 43.83749 | 15.31231 | 35079 ft | 499 kts | 127° |
| 2026-04-28 06:56 | 43.79605 | 15.38939 | 35069 ft | 499 kts | 127° |
| 2026-04-28 06:57 | 43.75482 | 15.46588 | 35066 ft | 499 kts | 127° |
| 2026-04-28 06:57 | 43.71327 | 15.54275 | 35064 ft | 499 kts | 127° |
| 2026-04-28 06:58 | 43.67170 | 15.61946 | 35081 ft | 498 kts | 127° |
| 2026-04-28 06:58 | 43.63004 | 15.69615 | 35062 ft | 498 kts | 127° |
| 2026-04-28 06:59 | 43.58841 | 15.77256 | 35079 ft | 498 kts | 127° |
| 2026-04-28 06:59 | 43.54661 | 15.84909 | 35081 ft | 498 kts | 127° |
| 2026-04-28 07:00 | 43.50491 | 15.92526 | 35070 ft | 498 kts | 127° |
| 2026-04-28 07:00 | 43.46319 | 16.00125 | 35065 ft | 498 kts | 127° |
| 2026-04-28 07:01 | 43.42160 | 16.07679 | 35067 ft | 497 kts | 127° |
| 2026-04-28 07:01 | 43.37980 | 16.15255 | 35083 ft | 497 kts | 127° |
| 2026-04-28 07:02 | 43.33790 | 16.22827 | 35082 ft | 497 kts | 127° |
| 2026-04-28 07:02 | 43.29598 | 16.30385 | 35079 ft | 497 kts | 127° |
| 2026-04-28 07:03 | 43.25392 | 16.37948 | 35081 ft | 497 kts | 127° |
| 2026-04-28 07:03 | 43.21219 | 16.45433 | 35066 ft | 497 kts | 127° |
| 2026-04-28 07:04 | 43.17003 | 16.52975 | 35067 ft | 497 kts | 127° |
| 2026-04-28 07:04 | 43.12793 | 16.60488 | 35084 ft | 497 kts | 128° |
| 2026-04-28 07:05 | 43.08579 | 16.67989 | 35088 ft | 496 kts | 128° |
| 2026-04-28 07:05 | 43.04364 | 16.75473 | 35085 ft | 496 kts | 128° |
| 2026-04-28 07:06 | 43.00181 | 16.82881 | 35072 ft | 495 kts | 128° |
| 2026-04-28 07:06 | 42.95959 | 16.90329 | 35090 ft | 495 kts | 128° |
| 2026-04-28 07:07 | 42.91745 | 16.97758 | 35073 ft | 495 kts | 128° |
| 2026-04-28 07:07 | 42.87531 | 17.05171 | 35094 ft | 494 kts | 128° |
| 2026-04-28 07:08 | 42.83313 | 17.12567 | 35095 ft | 494 kts | 128° |
| 2026-04-28 07:08 | 42.79085 | 17.19962 | 35091 ft | 494 kts | 128° |
| 2026-04-28 07:09 | 42.74858 | 17.27336 | 35076 ft | 494 kts | 128° |
| 2026-04-28 07:09 | 42.70627 | 17.34699 | 35088 ft | 494 kts | 128° |
| 2026-04-28 07:10 | 42.66417 | 17.42007 | 35092 ft | 494 kts | 128° |
| 2026-04-28 07:10 | 42.62181 | 17.49344 | 35072 ft | 494 kts | 128° |
| 2026-04-28 07:11 | 42.57938 | 17.56673 | 35091 ft | 494 kts | 128° |
| 2026-04-28 07:11 | 42.53689 | 17.63995 | 35088 ft | 494 kts | 128° |
| 2026-04-28 07:12 | 42.49435 | 17.71307 | 35073 ft | 494 kts | 128° |
| 2026-04-28 07:12 | 42.45182 | 17.78602 | 35089 ft | 493 kts | 128° |
| 2026-04-28 07:13 | 42.40925 | 17.85884 | 35093 ft | 493 kts | 128° |
| 2026-04-28 07:13 | 42.36659 | 17.93165 | 35095 ft | 493 kts | 128° |
| 2026-04-28 07:14 | 42.32392 | 18.00428 | 35075 ft | 493 kts | 128° |
| 2026-04-28 07:14 | 42.28125 | 18.07676 | 35087 ft | 493 kts | 128° |
| 2026-04-28 07:15 | 42.23851 | 18.14918 | 35095 ft | 493 kts | 128° |
| 2026-04-28 07:15 | 42.19607 | 18.22092 | 35092 ft | 493 kts | 128° |
| 2026-04-28 07:16 | 42.15326 | 18.29312 | 35077 ft | 493 kts | 128° |
| 2026-04-28 07:16 | 42.11039 | 18.36528 | 35077 ft | 492 kts | 128° |
| 2026-04-28 07:17 | 42.06752 | 18.43732 | 35086 ft | 492 kts | 128° |
| 2026-04-28 07:17 | 42.02450 | 18.50810 | 35088 ft | 492 kts | 132° |
| 2026-04-28 07:18 | 41.97458 | 18.56973 | 35108 ft | 493 kts | 142° |
| 2026-04-28 07:18 | 41.92002 | 18.62533 | 35089 ft | 493 kts | 143° |
| 2026-04-28 07:19 | 41.86540 | 18.68113 | 35093 ft | 493 kts | 142° |
| 2026-04-28 07:19 | 41.81107 | 18.73718 | 35106 ft | 493 kts | 142° |
| 2026-04-28 07:20 | 41.75671 | 18.79338 | 35106 ft | 493 kts | 142° |
| 2026-04-28 07:20 | 41.70235 | 18.84946 | 35095 ft | 493 kts | 142° |
| 2026-04-28 07:21 | 41.64790 | 18.90546 | 35096 ft | 493 kts | 142° |
| 2026-04-28 07:21 | 41.59348 | 18.96132 | 35094 ft | 493 kts | 142° |
| 2026-04-28 07:22 | 41.51181 | 19.04497 | 35099 ft | 493 kts | 142° |
| 2026-04-28 07:22 | 41.45768 | 19.10022 | 35095 ft | 492 kts | 142° |
| 2026-04-28 07:23 | 41.40435 | 19.15756 | 35114 ft | 492 kts | 140° |
| 2026-04-28 07:23 | 41.35203 | 19.21623 | 35112 ft | 492 kts | 139° |
| 2026-04-28 07:24 | 41.29961 | 19.27478 | 35096 ft | 492 kts | 140° |
| 2026-04-28 07:24 | 41.24698 | 19.33293 | 35094 ft | 491 kts | 140° |
| 2026-04-28 07:25 | 41.19465 | 19.39044 | 35096 ft | 491 kts | 140° |
| 2026-04-28 07:25 | 41.14156 | 19.44863 | 35112 ft | 491 kts | 140° |
| 2026-04-28 07:26 | 41.08922 | 19.50590 | 35091 ft | 492 kts | 140° |
| 2026-04-28 07:26 | 41.03642 | 19.56358 | 35103 ft | 492 kts | 140° |
| 2026-04-28 07:27 | 40.98356 | 19.62119 | 35109 ft | 492 kts | 140° |
| 2026-04-28 07:27 | 40.93070 | 19.67868 | 35104 ft | 492 kts | 140° |
| 2026-04-28 07:28 | 40.87780 | 19.73609 | 35084 ft | 492 kts | 140° |
| 2026-04-28 07:28 | 40.82490 | 19.79337 | 35104 ft | 491 kts | 140° |
| 2026-04-28 07:29 | 40.77223 | 19.85029 | 35084 ft | 492 kts | 140° |
| 2026-04-28 07:29 | 40.71924 | 19.90743 | 35087 ft | 492 kts | 140° |
| 2026-04-28 07:30 | 40.66621 | 19.96450 | 35099 ft | 492 kts | 140° |
| 2026-04-28 07:30 | 40.61306 | 20.02157 | 35105 ft | 492 kts | 140° |
| 2026-04-28 07:31 | 40.55991 | 20.07851 | 35106 ft | 492 kts | 141° |
| 2026-04-28 07:31 | 40.50675 | 20.13536 | 35102 ft | 492 kts | 140° |
| 2026-04-28 07:32 | 40.45397 | 20.19168 | 35089 ft | 492 kts | 141° |
| 2026-04-28 07:32 | 40.40076 | 20.24835 | 35091 ft | 492 kts | 141° |
| 2026-04-28 07:33 | 40.34763 | 20.30482 | 35101 ft | 492 kts | 141° |
| 2026-04-28 07:33 | 40.29443 | 20.36123 | 35103 ft | 492 kts | 141° |
| 2026-04-28 07:34 | 40.24122 | 20.41756 | 35099 ft | 491 kts | 141° |
| 2026-04-28 07:34 | 40.18798 | 20.47381 | 35087 ft | 491 kts | 141° |
| 2026-04-28 07:35 | 40.13485 | 20.52987 | 35108 ft | 491 kts | 141° |
| 2026-04-28 07:35 | 40.08125 | 20.58553 | 35110 ft | 491 kts | 144° |
| 2026-04-28 07:36 | 40.02275 | 20.63140 | 35112 ft | 492 kts | 153° |
| 2026-04-28 07:36 | 39.96234 | 20.67241 | 35119 ft | 492 kts | 153° |
| 2026-04-28 07:37 | 39.90157 | 20.71382 | 35110 ft | 493 kts | 152° |
| 2026-04-28 07:37 | 39.84089 | 20.75560 | 35130 ft | 493 kts | 152° |
| 2026-04-28 07:38 | 39.78012 | 20.79757 | 35139 ft | 494 kts | 152° |
| 2026-04-28 07:38 | 39.71940 | 20.83945 | 35114 ft | 494 kts | 152° |
| 2026-04-28 07:39 | 39.66890 | 20.87420 | 35134 ft | 494 kts | 152° |
| 2026-04-28 07:39 | 39.60825 | 20.91583 | 35133 ft | 493 kts | 152° |
| 2026-04-28 07:40 | 39.53760 | 20.96423 | 35124 ft | 494 kts | 153° |
| 2026-04-28 07:40 | 39.47689 | 21.00571 | 35121 ft | 494 kts | 153° |
| 2026-04-28 07:41 | 39.42591 | 21.04049 | 35121 ft | 494 kts | 153° |
| 2026-04-28 07:41 | 39.36501 | 21.08197 | 35123 ft | 494 kts | 153° |
| 2026-04-28 07:42 | 39.30436 | 21.12320 | 35116 ft | 495 kts | 153° |
| 2026-04-28 07:42 | 39.24334 | 21.16459 | 35116 ft | 495 kts | 153° |
| 2026-04-28 07:43 | 39.18239 | 21.20585 | 35119 ft | 495 kts | 153° |
| 2026-04-28 07:43 | 39.12130 | 21.24712 | 35121 ft | 496 kts | 153° |
| 2026-04-28 07:44 | 39.06026 | 21.28828 | 35116 ft | 496 kts | 153° |
| 2026-04-28 07:44 | 38.99914 | 21.32942 | 35121 ft | 495 kts | 153° |
| 2026-04-28 07:45 | 38.93805 | 21.37045 | 35117 ft | 495 kts | 153° |
| 2026-04-28 07:45 | 38.87687 | 21.41146 | 35113 ft | 495 kts | 153° |
| 2026-04-28 07:46 | 38.81615 | 21.45209 | 35119 ft | 495 kts | 153° |
| 2026-04-28 07:46 | 38.75506 | 21.49287 | 35118 ft | 495 kts | 153° |
| 2026-04-28 07:47 | 38.69377 | 21.53372 | 35163 ft | 497 kts | 153° |
| 2026-04-28 07:47 | 38.66307 | 21.55415 | 35459 ft | 497 kts | 153° |
| 2026-04-28 07:47 | 38.63280 | 21.57428 | 35824 ft | 495 kts | 154° |
| 2026-04-28 07:48 | 38.60227 | 21.59456 | 36146 ft | 494 kts | 154° |
| 2026-04-28 07:48 | 38.57175 | 21.61481 | 36431 ft | 494 kts | 154° |
| 2026-04-28 07:48 | 38.54115 | 21.63508 | 36670 ft | 495 kts | 154° |
| 2026-04-28 07:48 | 38.51049 | 21.65539 | 36908 ft | 496 kts | 154° |
| 2026-04-28 07:49 | 38.47983 | 21.67567 | 37074 ft | 497 kts | 154° |
| 2026-04-28 07:49 | 38.44904 | 21.69601 | 37104 ft | 499 kts | 154° |
| 2026-04-28 07:49 | 38.38747 | 21.73667 | 37111 ft | 497 kts | 154° |
| 2026-04-28 07:50 | 38.32625 | 21.77700 | 37111 ft | 494 kts | 154° |
| 2026-04-28 07:50 | 38.26518 | 21.81715 | 37125 ft | 492 kts | 154° |
| 2026-04-28 07:51 | 38.20463 | 21.85688 | 37123 ft | 493 kts | 154° |
| 2026-04-28 07:51 | 38.14356 | 21.89689 | 37119 ft | 494 kts | 154° |
| 2026-04-28 07:52 | 38.08241 | 21.93686 | 37122 ft | 495 kts | 155° |
| 2026-04-28 07:52 | 38.02106 | 21.97689 | 37120 ft | 496 kts | 155° |
| 2026-04-28 07:53 | 37.95949 | 22.01700 | 37122 ft | 498 kts | 155° |
| 2026-04-28 07:53 | 37.89776 | 22.05713 | 37115 ft | 499 kts | 155° |
| 2026-04-28 07:54 | 37.83586 | 22.09729 | 37128 ft | 500 kts | 155° |
| 2026-04-28 07:54 | 37.77428 | 22.13718 | 37125 ft | 501 kts | 155° |
| 2026-04-28 07:55 | 37.71225 | 22.17727 | 37122 ft | 500 kts | 155° |
| 2026-04-28 07:55 | 37.65029 | 22.21724 | 37128 ft | 500 kts | 155° |
| 2026-04-28 07:56 | 37.58824 | 22.25720 | 37114 ft | 500 kts | 155° |
| 2026-04-28 07:56 | 37.52616 | 22.29710 | 37125 ft | 500 kts | 155° |
| 2026-04-28 07:57 | 37.46420 | 22.33686 | 37114 ft | 500 kts | 155° |
| 2026-04-28 07:57 | 37.40224 | 22.37653 | 37115 ft | 499 kts | 155° |
| 2026-04-28 07:58 | 37.34077 | 22.41581 | 37114 ft | 498 kts | 156° |
| 2026-04-28 07:58 | 37.27894 | 22.45525 | 37118 ft | 498 kts | 156° |
| 2026-04-28 07:59 | 37.21710 | 22.49464 | 37124 ft | 498 kts | 156° |
| 2026-04-28 07:59 | 37.15515 | 22.53402 | 37125 ft | 499 kts | 156° |
| 2026-04-28 08:00 | 37.09356 | 22.57308 | 37117 ft | 499 kts | 156° |
| 2026-04-28 08:00 | 37.03153 | 22.61237 | 37122 ft | 500 kts | 156° |
| 2026-04-28 08:01 | 36.96952 | 22.65156 | 37120 ft | 499 kts | 156° |
| 2026-04-28 08:01 | 36.90745 | 22.69072 | 37117 ft | 500 kts | 156° |
| 2026-04-28 08:02 | 36.84530 | 22.72986 | 37124 ft | 500 kts | 156° |
| 2026-04-28 08:02 | 36.78321 | 22.76888 | 37117 ft | 500 kts | 156° |
| 2026-04-28 08:03 | 36.72114 | 22.80784 | 37121 ft | 499 kts | 156° |
| 2026-04-28 08:03 | 36.65909 | 22.84671 | 37121 ft | 499 kts | 156° |
| 2026-04-28 08:04 | 36.59693 | 22.88557 | 37118 ft | 499 kts | 156° |
| 2026-04-28 08:04 | 36.53525 | 22.92406 | 37123 ft | 499 kts | 156° |
| 2026-04-28 08:05 | 36.47318 | 22.96273 | 37119 ft | 499 kts | 156° |
| 2026-04-28 08:05 | 36.41102 | 23.00138 | 37121 ft | 499 kts | 156° |
| 2026-04-28 08:06 | 36.34896 | 23.03990 | 37118 ft | 499 kts | 156° |
| 2026-04-28 08:06 | 36.28686 | 23.07837 | 37117 ft | 499 kts | 156° |
| 2026-04-28 08:07 | 36.22474 | 23.11680 | 37114 ft | 499 kts | 156° |
| 2026-04-28 08:07 | 36.16247 | 23.15524 | 37114 ft | 499 kts | 156° |
| 2026-04-28 08:08 | 36.10030 | 23.19355 | 37112 ft | 500 kts | 156° |
| 2026-04-28 08:08 | 36.03834 | 23.23167 | 37119 ft | 500 kts | 156° |
| 2026-04-28 08:09 | 35.97607 | 23.26991 | 37116 ft | 500 kts | 156° |
| 2026-04-28 08:09 | 35.91365 | 23.30818 | 37128 ft | 501 kts | 156° |
| 2026-04-28 08:10 | 35.85124 | 23.34637 | 37105 ft | 501 kts | 156° |
| 2026-04-28 08:10 | 35.78876 | 23.38454 | 37099 ft | 501 kts | 156° |
| 2026-04-28 08:11 | 35.72613 | 23.42273 | 37108 ft | 501 kts | 157° |
| 2026-04-28 08:11 | 35.66350 | 23.46085 | 37103 ft | 502 kts | 157° |
| 2026-04-28 08:12 | 35.60128 | 23.49866 | 37104 ft | 502 kts | 157° |
| 2026-04-28 08:12 | 35.53863 | 23.53666 | 37099 ft | 502 kts | 157° |
| 2026-04-28 08:13 | 35.47601 | 23.57457 | 37095 ft | 502 kts | 157° |
| 2026-04-28 08:13 | 35.41364 | 23.61227 | 37092 ft | 503 kts | 157° |
| 2026-04-28 08:14 | 35.35090 | 23.65013 | 37084 ft | 503 kts | 157° |
| 2026-04-28 08:14 | 35.28795 | 23.68805 | 37082 ft | 503 kts | 157° |
| 2026-04-28 08:15 | 35.22541 | 23.72565 | 37078 ft | 503 kts | 157° |
| 2026-04-28 08:15 | 35.16258 | 23.76337 | 37073 ft | 503 kts | 158° |
| 2026-04-28 08:16 | 35.09958 | 23.80112 | 37074 ft | 503 kts | 158° |
| 2026-04-28 08:16 | 35.03675 | 23.83871 | 37072 ft | 503 kts | 158° |
| 2026-04-28 08:17 | 34.97392 | 23.87623 | 37073 ft | 503 kts | 158° |
| 2026-04-28 08:17 | 34.91144 | 23.91347 | 37068 ft | 503 kts | 158° |
| 2026-04-28 08:18 | 34.84844 | 23.95097 | 37068 ft | 504 kts | 158° |
| 2026-04-28 08:18 | 34.78548 | 23.98837 | 37072 ft | 504 kts | 158° |
| 2026-04-28 08:19 | 34.72227 | 24.02586 | 37069 ft | 505 kts | 158° |
| 2026-04-28 08:19 | 34.65907 | 24.06328 | 37068 ft | 505 kts | 158° |
| 2026-04-28 08:20 | 34.59578 | 24.10070 | 37073 ft | 506 kts | 158° |
| 2026-04-28 08:20 | 34.53240 | 24.13810 | 37066 ft | 506 kts | 158° |
| 2026-04-28 08:21 | 34.46935 | 24.17525 | 37064 ft | 507 kts | 158° |
| 2026-04-28 08:21 | 34.40587 | 24.21259 | 37060 ft | 508 kts | 159° |
| 2026-04-28 08:22 | 34.34232 | 24.24990 | 37064 ft | 508 kts | 159° |
| 2026-04-28 08:22 | 34.27856 | 24.28728 | 37058 ft | 509 kts | 159° |
| 2026-04-28 08:23 | 34.21489 | 24.32456 | 37066 ft | 509 kts | 159° |
| 2026-04-28 08:23 | 34.15108 | 24.36186 | 37074 ft | 510 kts | 159° |
| 2026-04-28 08:24 | 34.08715 | 24.39920 | 37072 ft | 510 kts | 159° |
| 2026-04-28 08:24 | 34.02384 | 24.43707 | 37047 ft | 513 kts | 154° |
| 2026-04-28 08:25 | 33.96466 | 24.48620 | 37063 ft | 520 kts | 142° |
| 2026-04-28 08:26 | 33.88364 | 24.57401 | 37061 ft | 522 kts | 141° |
| 2026-04-28 08:26 | 33.82975 | 24.63263 | 37068 ft | 523 kts | 141° |
| 2026-04-28 08:27 | 33.77543 | 24.69105 | 37068 ft | 523 kts | 142° |
| 2026-04-28 08:27 | 33.72107 | 24.74918 | 37067 ft | 524 kts | 142° |
| 2026-04-28 08:28 | 33.66689 | 24.80698 | 37066 ft | 524 kts | 142° |
| 2026-04-28 08:28 | 33.61242 | 24.86504 | 37065 ft | 524 kts | 142° |
| 2026-04-28 08:29 | 33.55778 | 24.92318 | 37069 ft | 524 kts | 142° |
| 2026-04-28 08:29 | 33.51205 | 24.97177 | 37067 ft | 524 kts | 142° |
| 2026-04-28 08:30 | 33.45776 | 25.02937 | 37066 ft | 524 kts | 142° |
| 2026-04-28 08:30 | 33.40314 | 25.08720 | 37066 ft | 524 kts | 142° |
| 2026-04-28 08:31 | 33.34852 | 25.14495 | 37069 ft | 524 kts | 142° |
| 2026-04-28 08:31 | 33.29385 | 25.20263 | 37067 ft | 524 kts | 142° |
| 2026-04-28 08:32 | 33.23906 | 25.26035 | 37069 ft | 524 kts | 142° |
| 2026-04-28 08:32 | 33.18433 | 25.31790 | 37072 ft | 524 kts | 142° |
| 2026-04-28 08:33 | 33.12988 | 25.37506 | 37075 ft | 524 kts | 142° |
| 2026-04-28 08:33 | 33.07505 | 25.43252 | 37069 ft | 525 kts | 142° |
| 2026-04-28 08:34 | 33.02011 | 25.48999 | 37073 ft | 525 kts | 143° |
| 2026-04-28 08:34 | 32.96517 | 25.54737 | 37075 ft | 525 kts | 143° |
| 2026-04-28 08:35 | 32.91013 | 25.60475 | 37074 ft | 526 kts | 143° |
| 2026-04-28 08:35 | 32.85507 | 25.66205 | 37075 ft | 526 kts | 143° |
| 2026-04-28 08:36 | 32.80017 | 25.71909 | 37075 ft | 527 kts | 143° |
| 2026-04-28 08:36 | 32.74499 | 25.77633 | 37077 ft | 527 kts | 143° |
| 2026-04-28 08:37 | 32.68971 | 25.83357 | 37075 ft | 527 kts | 143° |
| 2026-04-28 08:37 | 32.63441 | 25.89073 | 37074 ft | 527 kts | 143° |
| 2026-04-28 08:38 | 32.57902 | 25.94789 | 37072 ft | 527 kts | 143° |
| 2026-04-28 08:38 | 32.52369 | 26.00489 | 37073 ft | 527 kts | 143° |
| 2026-04-28 08:39 | 32.46825 | 26.06190 | 37077 ft | 527 kts | 143° |
| 2026-04-28 08:39 | 32.41271 | 26.11893 | 37077 ft | 527 kts | 143° |
| 2026-04-28 08:40 | 32.35766 | 26.17535 | 37080 ft | 527 kts | 143° |
| 2026-04-28 08:40 | 32.30217 | 26.23214 | 37072 ft | 527 kts | 143° |
| 2026-04-28 08:41 | 32.24669 | 26.28881 | 37074 ft | 527 kts | 143° |
| 2026-04-28 08:41 | 32.19122 | 26.34537 | 37072 ft | 527 kts | 143° |
| 2026-04-28 08:42 | 32.13574 | 26.40186 | 37077 ft | 527 kts | 143° |
| 2026-04-28 08:42 | 32.08024 | 26.45827 | 37075 ft | 527 kts | 143° |
| 2026-04-28 08:43 | 32.02474 | 26.51459 | 37075 ft | 527 kts | 143° |
| 2026-04-28 08:43 | 31.96948 | 26.57057 | 37076 ft | 527 kts | 143° |
| 2026-04-28 08:44 | 31.91351 | 26.62718 | 37068 ft | 527 kts | 143° |
| 2026-04-28 08:44 | 31.85821 | 26.68302 | 37075 ft | 527 kts | 143° |
| 2026-04-28 08:45 | 31.80244 | 26.73923 | 37074 ft | 528 kts | 144° |
| 2026-04-28 08:45 | 31.74676 | 26.79527 | 37075 ft | 527 kts | 144° |
| 2026-04-28 08:46 | 31.69086 | 26.85144 | 37073 ft | 527 kts | 144° |
| 2026-04-28 08:46 | 31.63511 | 26.90738 | 37071 ft | 527 kts | 144° |
| 2026-04-28 08:47 | 31.57931 | 26.96327 | 37070 ft | 527 kts | 144° |
| 2026-04-28 08:47 | 31.52384 | 27.01875 | 37079 ft | 527 kts | 144° |
| 2026-04-28 08:48 | 31.46797 | 27.07454 | 37085 ft | 527 kts | 144° |
| 2026-04-28 08:48 | 31.41215 | 27.13024 | 37099 ft | 527 kts | 144° |
| 2026-04-28 08:49 | 31.35633 | 27.18578 | 37098 ft | 526 kts | 145° |
| 2026-04-28 08:49 | 31.29677 | 27.23430 | 37106 ft | 518 kts | 156° |
| 2026-04-28 08:50 | 31.23235 | 27.27068 | 37100 ft | 513 kts | 162° |
| 2026-04-28 08:50 | 31.16732 | 27.30504 | 37087 ft | 514 kts | 162° |
| 2026-04-28 08:51 | 31.10275 | 27.33985 | 37077 ft | 514 kts | 161° |
| 2026-04-28 08:51 | 31.03784 | 27.37516 | 37073 ft | 515 kts | 161° |
| 2026-04-28 08:52 | 30.97280 | 27.41042 | 37065 ft | 515 kts | 161° |
| 2026-04-28 08:52 | 30.91007 | 27.45220 | 37078 ft | 525 kts | 150° |
| 2026-04-28 08:53 | 30.85244 | 27.50504 | 37076 ft | 528 kts | 146° |
| 2026-04-28 08:53 | 30.79532 | 27.55903 | 37070 ft | 529 kts | 146° |
| 2026-04-28 08:54 | 30.73783 | 27.61276 | 37065 ft | 529 kts | 147° |
| 2026-04-28 08:54 | 30.68053 | 27.66576 | 37066 ft | 530 kts | 147° |
| 2026-04-28 08:55 | 30.62270 | 27.71906 | 37062 ft | 530 kts | 147° |
| 2026-04-28 08:55 | 30.56488 | 27.77230 | 37064 ft | 530 kts | 147° |
| 2026-04-28 08:56 | 30.50704 | 27.82551 | 37061 ft | 531 kts | 147° |
| 2026-04-28 08:56 | 30.44904 | 27.87880 | 37065 ft | 531 kts | 147° |
| 2026-04-28 08:57 | 30.39102 | 27.93202 | 37057 ft | 532 kts | 147° |
| 2026-04-28 08:57 | 30.33334 | 27.98485 | 37062 ft | 532 kts | 147° |
| 2026-04-28 08:58 | 30.27524 | 28.03797 | 37059 ft | 532 kts | 147° |
| 2026-04-28 08:58 | 30.21702 | 28.09112 | 37062 ft | 533 kts | 147° |
| 2026-04-28 08:59 | 30.15871 | 28.14428 | 37062 ft | 534 kts | 148° |
| 2026-04-28 08:59 | 30.10035 | 28.19741 | 37060 ft | 535 kts | 148° |
| 2026-04-28 09:00 | 30.04222 | 28.25026 | 37058 ft | 535 kts | 148° |
| 2026-04-28 09:00 | 29.98362 | 28.30347 | 37060 ft | 536 kts | 148° |
| 2026-04-28 09:01 | 29.92496 | 28.35668 | 37059 ft | 536 kts | 148° |
| 2026-04-28 09:01 | 29.86773 | 28.41226 | 37058 ft | 542 kts | 141° |
| 2026-04-28 09:02 | 29.81841 | 28.47803 | 37063 ft | 549 kts | 131° |
| 2026-04-28 09:02 | 29.77252 | 28.54838 | 37053 ft | 550 kts | 131° |
| 2026-04-28 09:03 | 29.72625 | 28.61838 | 37061 ft | 550 kts | 132° |
| 2026-04-28 09:03 | 29.67955 | 28.68797 | 37057 ft | 550 kts | 132° |
| 2026-04-28 09:04 | 29.63272 | 28.75761 | 37056 ft | 550 kts | 132° |
| 2026-04-28 09:04 | 29.58580 | 28.82725 | 37051 ft | 550 kts | 132° |
| 2026-04-28 09:05 | 29.53897 | 28.89675 | 37051 ft | 550 kts | 132° |
| 2026-04-28 09:05 | 29.49209 | 28.96632 | 37047 ft | 550 kts | 132° |
| 2026-04-28 09:06 | 29.44544 | 29.03521 | 37049 ft | 549 kts | 134° |
| 2026-04-28 09:06 | 29.39300 | 29.09785 | 37052 ft | 540 kts | 145° |
| 2026-04-28 09:07 | 29.33384 | 29.14994 | 37065 ft | 535 kts | 150° |
| 2026-04-28 09:07 | 29.27386 | 29.20060 | 37046 ft | 535 kts | 150° |
| 2026-04-28 09:08 | 29.21423 | 29.25192 | 37053 ft | 536 kts | 150° |
| 2026-04-28 09:08 | 29.15475 | 29.30342 | 37051 ft | 536 kts | 150° |
| 2026-04-28 09:09 | 29.09504 | 29.35454 | 37044 ft | 535 kts | 150° |
| 2026-04-28 09:09 | 29.03516 | 29.40421 | 37052 ft | 535 kts | 151° |
| 2026-04-28 09:10 | 28.97477 | 29.45398 | 37048 ft | 535 kts | 151° |
| 2026-04-28 09:10 | 28.91459 | 29.50375 | 37055 ft | 534 kts | 151° |
| 2026-04-28 09:11 | 28.85438 | 29.55366 | 37049 ft | 534 kts | 151° |
| 2026-04-28 09:11 | 28.79414 | 29.60354 | 37055 ft | 534 kts | 151° |
| 2026-04-28 09:12 | 28.73400 | 29.65325 | 37060 ft | 534 kts | 151° |
| 2026-04-28 09:12 | 28.67379 | 29.70293 | 37065 ft | 534 kts | 152° |
| 2026-04-28 09:13 | 28.61392 | 29.75226 | 37065 ft | 534 kts | 152° |
| 2026-04-28 09:13 | 28.55363 | 29.80187 | 37068 ft | 534 kts | 152° |
| 2026-04-28 09:14 | 28.49336 | 29.85139 | 37084 ft | 534 kts | 152° |
| 2026-04-28 09:14 | 28.43304 | 29.90087 | 37078 ft | 535 kts | 152° |
| 2026-04-28 09:15 | 28.37269 | 29.95031 | 37076 ft | 535 kts | 152° |
| 2026-04-28 09:15 | 28.31225 | 29.99975 | 37079 ft | 535 kts | 152° |
| 2026-04-28 09:16 | 28.25184 | 30.04910 | 37077 ft | 535 kts | 152° |
| 2026-04-28 09:16 | 28.19176 | 30.09811 | 37071 ft | 535 kts | 152° |
| 2026-04-28 09:17 | 28.13128 | 30.14738 | 37080 ft | 535 kts | 152° |
| 2026-04-28 09:17 | 28.07088 | 30.19651 | 37085 ft | 535 kts | 153° |
| 2026-04-28 09:18 | 28.01033 | 30.24569 | 37084 ft | 535 kts | 153° |
| 2026-04-28 09:18 | 27.95021 | 30.29446 | 37083 ft | 535 kts | 153° |
| 2026-04-28 09:19 | 27.88976 | 30.34342 | 37083 ft | 535 kts | 153° |
| 2026-04-28 09:19 | 27.83910 | 30.38440 | 37089 ft | 535 kts | 153° |
| 2026-04-28 09:20 | 27.76869 | 30.44128 | 37091 ft | 535 kts | 153° |
| 2026-04-28 09:20 | 27.71831 | 30.48192 | 37087 ft | 535 kts | 153° |
| 2026-04-28 09:21 | 27.65774 | 30.53073 | 37084 ft | 535 kts | 153° |
| 2026-04-28 09:21 | 27.59716 | 30.57947 | 37085 ft | 534 kts | 153° |
| 2026-04-28 09:22 | 27.53659 | 30.62814 | 37083 ft | 534 kts | 153° |
| 2026-04-28 09:22 | 27.47609 | 30.67668 | 37084 ft | 534 kts | 153° |
| 2026-04-28 09:23 | 27.41547 | 30.72525 | 37085 ft | 534 kts | 154° |
| 2026-04-28 09:23 | 27.35492 | 30.77372 | 37095 ft | 534 kts | 154° |
| 2026-04-28 09:24 | 27.29433 | 30.82214 | 37099 ft | 534 kts | 154° |
| 2026-04-28 09:24 | 27.23401 | 30.87029 | 37106 ft | 534 kts | 154° |
| 2026-04-28 09:25 | 27.17334 | 30.91868 | 37119 ft | 534 kts | 154° |
| 2026-04-28 09:25 | 27.11268 | 30.96702 | 37124 ft | 534 kts | 154° |
| 2026-04-28 09:26 | 27.05242 | 31.01616 | 37120 ft | 540 kts | 149° |
| 2026-04-28 09:26 | 26.99784 | 31.07524 | 37120 ft | 553 kts | 137° |
| 2026-04-28 09:27 | 26.92524 | 31.17634 | 37105 ft | 555 kts | 136° |
| 2026-04-28 09:27 | 26.87695 | 31.24384 | 37084 ft | 555 kts | 136° |
| 2026-04-28 09:28 | 26.82861 | 31.31051 | 37056 ft | 555 kts | 136° |
| 2026-04-28 09:28 | 26.77980 | 31.37737 | 37031 ft | 555 kts | 136° |
| 2026-04-28 09:29 | 26.73094 | 31.44420 | 37036 ft | 555 kts | 136° |
| 2026-04-28 09:29 | 26.68202 | 31.51109 | 37019 ft | 555 kts | 136° |
| 2026-04-28 09:30 | 26.63317 | 31.57783 | 36996 ft | 554 kts | 136° |
| 2026-04-28 09:30 | 26.58430 | 31.64449 | 36980 ft | 554 kts | 137° |
| 2026-04-28 09:31 | 26.53569 | 31.71068 | 36969 ft | 554 kts | 137° |
| 2026-04-28 09:31 | 26.48678 | 31.77717 | 36960 ft | 554 kts | 137° |
| 2026-04-28 09:32 | 26.43784 | 31.84363 | 36962 ft | 554 kts | 137° |
| 2026-04-28 09:32 | 26.38892 | 31.90994 | 36958 ft | 554 kts | 137° |
| 2026-04-28 09:33 | 26.33998 | 31.97620 | 36960 ft | 553 kts | 137° |
| 2026-04-28 09:33 | 26.29102 | 32.04238 | 36967 ft | 553 kts | 137° |
| 2026-04-28 09:34 | 26.24202 | 32.10853 | 36964 ft | 553 kts | 137° |
| 2026-04-28 09:34 | 26.19298 | 32.17462 | 36968 ft | 553 kts | 137° |
| 2026-04-28 09:35 | 26.14391 | 32.24066 | 36972 ft | 554 kts | 137° |
| 2026-04-28 09:35 | 26.09485 | 32.30660 | 36967 ft | 553 kts | 137° |
| 2026-04-28 09:36 | 26.04575 | 32.37250 | 36964 ft | 553 kts | 137° |
| 2026-04-28 09:36 | 25.99662 | 32.43835 | 36967 ft | 552 kts | 137° |
| 2026-04-28 09:37 | 25.94790 | 32.50355 | 36969 ft | 552 kts | 137° |
| 2026-04-28 09:37 | 25.89883 | 32.56913 | 36972 ft | 551 kts | 137° |
| 2026-04-28 09:38 | 25.84975 | 32.63467 | 36974 ft | 551 kts | 137° |
| 2026-04-28 09:38 | 25.80069 | 32.70012 | 36984 ft | 550 kts | 137° |
| 2026-04-28 09:39 | 25.75184 | 32.76552 | 37008 ft | 552 kts | 136° |
| 2026-04-28 09:39 | 25.70767 | 32.83592 | 37001 ft | 558 kts | 130° |
| 2026-04-28 09:40 | 25.66532 | 32.90823 | 36993 ft | 558 kts | 130° |
| 2026-04-28 09:40 | 25.62306 | 32.97993 | 36978 ft | 558 kts | 130° |
| 2026-04-28 09:41 | 25.58022 | 33.05171 | 36970 ft | 557 kts | 130° |
| 2026-04-28 09:41 | 25.53739 | 33.12311 | 36957 ft | 557 kts | 131° |
| 2026-04-28 09:42 | 25.49451 | 33.19455 | 36959 ft | 556 kts | 131° |
| 2026-04-28 09:42 | 25.45167 | 33.26589 | 36963 ft | 556 kts | 131° |
| 2026-04-28 09:43 | 25.40874 | 33.33730 | 36961 ft | 556 kts | 131° |
| 2026-04-28 09:43 | 25.36609 | 33.40814 | 36957 ft | 556 kts | 131° |
| 2026-04-28 09:44 | 25.32314 | 33.47942 | 36953 ft | 556 kts | 131° |
| 2026-04-28 09:44 | 25.28012 | 33.55048 | 36956 ft | 556 kts | 131° |
| 2026-04-28 09:45 | 25.23696 | 33.62154 | 36951 ft | 556 kts | 131° |
| 2026-04-28 09:45 | 25.19407 | 33.69216 | 36954 ft | 556 kts | 131° |
| 2026-04-28 09:46 | 25.15096 | 33.76311 | 36968 ft | 556 kts | 131° |
| 2026-04-28 09:46 | 25.10780 | 33.83408 | 36944 ft | 557 kts | 131° |
| 2026-04-28 09:47 | 25.06458 | 33.90502 | 36952 ft | 556 kts | 131° |
| 2026-04-28 09:47 | 25.02138 | 33.97582 | 36952 ft | 556 kts | 131° |
| 2026-04-28 09:48 | 24.97816 | 34.04654 | 36954 ft | 556 kts | 131° |
| 2026-04-28 09:48 | 24.93486 | 34.11728 | 36950 ft | 556 kts | 131° |
| 2026-04-28 09:49 | 24.89156 | 34.18792 | 36950 ft | 556 kts | 131° |
| 2026-04-28 09:49 | 24.84825 | 34.25849 | 36952 ft | 556 kts | 131° |
| 2026-04-28 09:50 | 24.80516 | 34.32858 | 36949 ft | 555 kts | 131° |
| 2026-04-28 09:50 | 24.76183 | 34.39897 | 36959 ft | 555 kts | 131° |
| 2026-04-28 09:51 | 24.71847 | 34.46930 | 36939 ft | 554 kts | 131° |
| 2026-04-28 09:51 | 24.67526 | 34.53929 | 36924 ft | 553 kts | 131° |
| 2026-04-28 09:52 | 24.63174 | 34.60961 | 36732 ft | 557 kts | 131° |
| 2026-04-28 09:52 | 24.61017 | 34.64446 | 36535 ft | 557 kts | 131° |
| 2026-04-28 09:52 | 24.58845 | 34.67957 | 36342 ft | 554 kts | 131° |
| 2026-04-28 09:53 | 24.56684 | 34.71447 | 36173 ft | 552 kts | 131° |
| 2026-04-28 09:53 | 24.54523 | 34.74934 | 36000 ft | 550 kts | 131° |
| 2026-04-28 09:53 | 24.52370 | 34.78403 | 35815 ft | 549 kts | 131° |
| 2026-04-28 09:53 | 24.50219 | 34.81866 | 35662 ft | 548 kts | 131° |
| 2026-04-28 09:54 | 24.48074 | 34.85316 | 35499 ft | 547 kts | 131° |
| 2026-04-28 09:54 | 24.45928 | 34.88764 | 35325 ft | 546 kts | 131° |
| 2026-04-28 09:54 | 24.43784 | 34.92211 | 35178 ft | 545 kts | 131° |
| 2026-04-28 09:54 | 24.41646 | 34.95645 | 35000 ft | 545 kts | 131° |
| 2026-04-28 09:55 | 24.39507 | 34.99073 | 34832 ft | 544 kts | 131° |
| 2026-04-28 09:55 | 24.37400 | 35.02446 | 34680 ft | 543 kts | 131° |
| 2026-04-28 09:55 | 24.35265 | 35.05864 | 34527 ft | 542 kts | 131° |
| 2026-04-28 09:55 | 24.33132 | 35.09279 | 34362 ft | 542 kts | 131° |
| 2026-04-28 09:56 | 24.31005 | 35.12683 | 34206 ft | 541 kts | 131° |
| 2026-04-28 09:56 | 24.28880 | 35.16082 | 34067 ft | 542 kts | 131° |
| 2026-04-28 09:56 | 24.26723 | 35.19519 | 33920 ft | 553 kts | 131° |
| 2026-04-28 09:56 | 24.24521 | 35.23024 | 33762 ft | 563 kts | 131° |
| 2026-04-28 09:57 | 24.22283 | 35.26586 | 33611 ft | 572 kts | 131° |
| 2026-04-28 09:57 | 24.20020 | 35.30193 | 33454 ft | 576 kts | 130° |
| 2026-04-28 09:57 | 24.17738 | 35.33837 | 33290 ft | 578 kts | 130° |
| 2026-04-28 09:57 | 24.15467 | 35.37465 | 33103 ft | 576 kts | 130° |
| 2026-04-28 09:58 | 24.13232 | 35.41031 | 32913 ft | 575 kts | 130° |
| 2026-04-28 09:58 | 24.10966 | 35.44637 | 32667 ft | 574 kts | 130° |
| 2026-04-28 09:58 | 24.08705 | 35.48230 | 32425 ft | 572 kts | 130° |
| 2026-04-28 09:58 | 24.06457 | 35.51800 | 32186 ft | 570 kts | 130° |
| 2026-04-28 09:59 | 24.04203 | 35.55376 | 31941 ft | 567 kts | 130° |
| 2026-04-28 09:59 | 24.01968 | 35.58921 | 31692 ft | 564 kts | 130° |
| 2026-04-28 09:59 | 23.99743 | 35.62450 | 31466 ft | 562 kts | 130° |
| 2026-04-28 09:59 | 23.97530 | 35.65954 | 31244 ft | 559 kts | 130° |
| 2026-04-28 10:00 | 23.95324 | 35.69441 | 31003 ft | 556 kts | 130° |
| 2026-04-28 10:00 | 23.93121 | 35.72917 | 30767 ft | 554 kts | 130° |
| 2026-04-28 10:00 | 23.90936 | 35.76362 | 30541 ft | 551 kts | 130° |
| 2026-04-28 10:00 | 23.88756 | 35.79799 | 30316 ft | 549 kts | 130° |
| 2026-04-28 10:01 | 23.86588 | 35.83219 | 30084 ft | 546 kts | 130° |
| 2026-04-28 10:01 | 23.84426 | 35.86626 | 29817 ft | 544 kts | 130° |
| 2026-04-28 10:01 | 23.82299 | 35.89978 | 29582 ft | 541 kts | 130° |
| 2026-04-28 10:01 | 23.80162 | 35.93346 | 29299 ft | 538 kts | 130° |
| 2026-04-28 10:02 | 23.78038 | 35.96690 | 29033 ft | 534 kts | 130° |
| 2026-04-28 10:02 | 23.75926 | 36.00012 | 28769 ft | 530 kts | 130° |
| 2026-04-28 10:02 | 23.73829 | 36.03311 | 28496 ft | 525 kts | 130° |
| 2026-04-28 10:02 | 23.71765 | 36.06557 | 28235 ft | 518 kts | 130° |
| 2026-04-28 10:03 | 23.69720 | 36.09769 | 27973 ft | 512 kts | 130° |
| 2026-04-28 10:03 | 23.67693 | 36.12948 | 27720 ft | 508 kts | 130° |
| 2026-04-28 10:03 | 23.65683 | 36.16098 | 27467 ft | 503 kts | 130° |
| 2026-04-28 10:03 | 23.63689 | 36.19220 | 27218 ft | 499 kts | 130° |
| 2026-04-28 10:04 | 23.61731 | 36.22284 | 26969 ft | 496 kts | 130° |
| 2026-04-28 10:04 | 23.59768 | 36.25355 | 26721 ft | 492 kts | 130° |
| 2026-04-28 10:04 | 23.57812 | 36.28412 | 26475 ft | 489 kts | 130° |
| 2026-04-28 10:04 | 23.55868 | 36.31449 | 26246 ft | 486 kts | 130° |
| 2026-04-28 10:05 | 23.53937 | 36.34465 | 26016 ft | 484 kts | 130° |
| 2026-04-28 10:05 | 23.52014 | 36.37467 | 25777 ft | 481 kts | 130° |
| 2026-04-28 10:05 | 23.50104 | 36.40448 | 25540 ft | 478 kts | 130° |
| 2026-04-28 10:05 | 23.48206 | 36.43407 | 25308 ft | 476 kts | 130° |
| 2026-04-28 10:06 | 23.46312 | 36.46358 | 25078 ft | 473 kts | 129° |
| 2026-04-28 10:06 | 23.44431 | 36.49288 | 24840 ft | 471 kts | 129° |
| 2026-04-28 10:06 | 23.42562 | 36.52196 | 24614 ft | 468 kts | 129° |
| 2026-04-28 10:06 | 23.40704 | 36.55088 | 24408 ft | 465 kts | 129° |
| 2026-04-28 10:07 | 23.38850 | 36.57971 | 24177 ft | 462 kts | 129° |
| 2026-04-28 10:07 | 23.37633 | 36.59862 | 24027 ft | 460 kts | 129° |
| 2026-04-28 10:07 | 23.35800 | 36.62709 | 23807 ft | 457 kts | 129° |
| 2026-04-28 10:07 | 23.33977 | 36.65541 | 23580 ft | 455 kts | 129° |
| 2026-04-28 10:08 | 23.31585 | 36.69251 | 23244 ft | 451 kts | 129° |
| 2026-04-28 10:08 | 23.30371 | 36.71134 | 23072 ft | 449 kts | 129° |
| 2026-04-28 10:08 | 23.28580 | 36.73911 | 22803 ft | 446 kts | 129° |
| 2026-04-28 10:08 | 23.26226 | 36.77557 | 22455 ft | 443 kts | 129° |
| 2026-04-28 10:09 | 23.25029 | 36.79410 | 22274 ft | 442 kts | 129° |
| 2026-04-28 10:09 | 23.23289 | 36.82103 | 22022 ft | 440 kts | 129° |
| 2026-04-28 10:09 | 23.21509 | 36.84856 | 21761 ft | 438 kts | 129° |
| 2026-04-28 10:09 | 23.19781 | 36.87527 | 21502 ft | 437 kts | 129° |
| 2026-04-28 10:10 | 23.18038 | 36.90221 | 21261 ft | 435 kts | 129° |
| 2026-04-28 10:10 | 23.16300 | 36.92906 | 21024 ft | 434 kts | 129° |
| 2026-04-28 10:10 | 23.14567 | 36.95581 | 20769 ft | 432 kts | 129° |
| 2026-04-28 10:10 | 23.12838 | 36.98250 | 20523 ft | 431 kts | 129° |
| 2026-04-28 10:11 | 23.11120 | 37.00900 | 20284 ft | 429 kts | 129° |
| 2026-04-28 10:11 | 23.09404 | 37.03546 | 20038 ft | 428 kts | 129° |
| 2026-04-28 10:11 | 23.07693 | 37.06184 | 19806 ft | 426 kts | 129° |
| 2026-04-28 10:11 | 23.05992 | 37.08807 | 19570 ft | 424 kts | 129° |
| 2026-04-28 10:12 | 23.04294 | 37.11423 | 19337 ft | 423 kts | 129° |
| 2026-04-28 10:12 | 23.02602 | 37.14023 | 19107 ft | 421 kts | 129° |
| 2026-04-28 10:12 | 23.00914 | 37.16608 | 18875 ft | 419 kts | 129° |
| 2026-04-28 10:12 | 22.99226 | 37.19175 | 18650 ft | 417 kts | 129° |
| 2026-04-28 10:13 | 22.97542 | 37.21732 | 18413 ft | 415 kts | 129° |
| 2026-04-28 10:13 | 22.95867 | 37.24274 | 18181 ft | 413 kts | 129° |
| 2026-04-28 10:13 | 22.94201 | 37.26806 | 17944 ft | 411 kts | 129° |
| 2026-04-28 10:13 | 22.92544 | 37.29324 | 17672 ft | 409 kts | 129° |
| 2026-04-28 10:14 | 22.90889 | 37.31839 | 17415 ft | 414 kts | 129° |
| 2026-04-28 10:14 | 22.89183 | 37.34424 | 17195 ft | 427 kts | 129° |
| 2026-04-28 10:14 | 22.87453 | 37.37051 | 17006 ft | 428 kts | 129° |
| 2026-04-28 10:14 | 22.85726 | 37.39676 | 16966 ft | 428 kts | 129° |
| 2026-04-28 10:15 | 22.83993 | 37.42310 | 16924 ft | 429 kts | 129° |
| 2026-04-28 10:15 | 22.82261 | 37.44939 | 16923 ft | 428 kts | 129° |
| 2026-04-28 10:15 | 22.80527 | 37.47570 | 16920 ft | 428 kts | 129° |
| 2026-04-28 10:15 | 22.78819 | 37.50161 | 16914 ft | 428 kts | 129° |
| 2026-04-28 10:16 | 22.77084 | 37.52789 | 16915 ft | 428 kts | 129° |
| 2026-04-28 10:16 | 22.75348 | 37.55415 | 16912 ft | 428 kts | 129° |
| 2026-04-28 10:16 | 22.73624 | 37.58034 | 16915 ft | 428 kts | 129° |
| 2026-04-28 10:16 | 22.71897 | 37.60665 | 16916 ft | 428 kts | 129° |
| 2026-04-28 10:17 | 22.70171 | 37.63296 | 16913 ft | 428 kts | 129° |
| 2026-04-28 10:17 | 22.68447 | 37.65922 | 16917 ft | 428 kts | 129° |
| 2026-04-28 10:17 | 22.66747 | 37.68513 | 16913 ft | 428 kts | 129° |
| 2026-04-28 10:17 | 22.65023 | 37.71142 | 16910 ft | 428 kts | 129° |
| 2026-04-28 10:18 | 22.63302 | 37.73766 | 16911 ft | 428 kts | 129° |
| 2026-04-28 10:18 | 22.61577 | 37.76395 | 16915 ft | 428 kts | 129° |
| 2026-04-28 10:18 | 22.59856 | 37.79019 | 16910 ft | 428 kts | 129° |
| 2026-04-28 10:18 | 22.58131 | 37.81647 | 16911 ft | 428 kts | 129° |
| 2026-04-28 10:19 | 22.56407 | 37.84272 | 16910 ft | 425 kts | 129° |
| 2026-04-28 10:19 | 22.54727 | 37.86834 | 16896 ft | 409 kts | 129° |
| 2026-04-28 10:19 | 22.53115 | 37.89295 | 16890 ft | 392 kts | 129° |
| 2026-04-28 10:19 | 22.51571 | 37.91648 | 16892 ft | 376 kts | 129° |
| 2026-04-28 10:20 | 22.50084 | 37.93910 | 16889 ft | 361 kts | 129° |
| 2026-04-28 10:20 | 22.48658 | 37.96076 | 16893 ft | 346 kts | 130° |
| 2026-04-28 10:20 | 22.47281 | 37.98166 | 16896 ft | 340 kts | 130° |
| 2026-04-28 10:20 | 22.45910 | 38.00239 | 16897 ft | 339 kts | 130° |
| 2026-04-28 10:21 | 22.44543 | 38.02309 | 16905 ft | 338 kts | 130° |
| 2026-04-28 10:21 | 22.43174 | 38.04381 | 16910 ft | 338 kts | 130° |
| 2026-04-28 10:21 | 22.41808 | 38.06451 | 16909 ft | 338 kts | 130° |
| 2026-04-28 10:21 | 22.40444 | 38.08518 | 16907 ft | 338 kts | 130° |
| 2026-04-28 10:22 | 22.39075 | 38.10584 | 16907 ft | 338 kts | 130° |
| 2026-04-28 10:22 | 22.37702 | 38.12654 | 16906 ft | 339 kts | 130° |
| 2026-04-28 10:22 | 22.36333 | 38.14727 | 16908 ft | 339 kts | 130° |
| 2026-04-28 10:22 | 22.34966 | 38.16801 | 16909 ft | 339 kts | 130° |
| 2026-04-28 10:23 | 22.33598 | 38.18879 | 16904 ft | 340 kts | 130° |
| 2026-04-28 10:23 | 22.32224 | 38.20961 | 16904 ft | 340 kts | 130° |
| 2026-04-28 10:23 | 22.30845 | 38.23043 | 16914 ft | 341 kts | 130° |
| 2026-04-28 10:23 | 22.29464 | 38.25127 | 16897 ft | 341 kts | 130° |
| 2026-04-28 10:24 | 22.28080 | 38.27210 | 16894 ft | 341 kts | 130° |
| 2026-04-28 10:24 | 22.26697 | 38.29288 | 16912 ft | 341 kts | 130° |
| 2026-04-28 10:24 | 22.25328 | 38.31347 | 16891 ft | 341 kts | 130° |
| 2026-04-28 10:24 | 22.23942 | 38.33434 | 16891 ft | 341 kts | 130° |
| 2026-04-28 10:25 | 22.22557 | 38.35513 | 16909 ft | 341 kts | 130° |
| 2026-04-28 10:25 | 22.21167 | 38.37598 | 16889 ft | 341 kts | 130° |
| 2026-04-28 10:25 | 22.19760 | 38.39668 | 16907 ft | 340 kts | 132° |
| 2026-04-28 10:25 | 22.18329 | 38.41660 | 16886 ft | 340 kts | 133° |
| 2026-04-28 10:26 | 22.16850 | 38.43690 | 16892 ft | 340 kts | 133° |
| 2026-04-28 10:26 | 22.15408 | 38.45672 | 16902 ft | 340 kts | 133° |
| 2026-04-28 10:26 | 22.13947 | 38.47689 | 16886 ft | 340 kts | 133° |
| 2026-04-28 10:26 | 22.12521 | 38.49668 | 16859 ft | 329 kts | 133° |
| 2026-04-28 10:27 | 22.11142 | 38.51589 | 16730 ft | 319 kts | 133° |
| 2026-04-28 10:27 | 22.09803 | 38.53453 | 16575 ft | 310 kts | 133° |
| 2026-04-28 10:27 | 22.08503 | 38.55263 | 16430 ft | 301 kts | 134° |
| 2026-04-28 10:27 | 22.07242 | 38.57018 | 16282 ft | 291 kts | 134° |
| 2026-04-28 10:28 | 22.06019 | 38.58718 | 16131 ft | 284 kts | 134° |
| 2026-04-28 10:28 | 22.04812 | 38.60392 | 15985 ft | 281 kts | 134° |
| 2026-04-28 10:28 | 22.03611 | 38.62054 | 15868 ft | 281 kts | 134° |
| 2026-04-28 10:29 | 22.01216 | 38.65386 | 15615 ft | 281 kts | 134° |
| 2026-04-28 10:29 | 22.00013 | 38.67061 | 15480 ft | 282 kts | 134° |
| 2026-04-28 10:29 | 21.98814 | 38.68733 | 15324 ft | 283 kts | 134° |
| 2026-04-28 10:29 | 21.97612 | 38.70411 | 15201 ft | 283 kts | 134° |
| 2026-04-28 10:30 | 21.96411 | 38.72089 | 15058 ft | 282 kts | 134° |
| 2026-04-28 10:30 | 21.95214 | 38.73763 | 14917 ft | 281 kts | 134° |
| 2026-04-28 10:30 | 21.94022 | 38.75429 | 14779 ft | 280 kts | 134° |
| 2026-04-28 10:30 | 21.92837 | 38.77086 | 14625 ft | 279 kts | 134° |
| 2026-04-28 10:31 | 21.91670 | 38.78716 | 14485 ft | 277 kts | 134° |
| 2026-04-28 10:31 | 21.90496 | 38.80356 | 14329 ft | 276 kts | 134° |
| 2026-04-28 10:31 | 21.89329 | 38.81987 | 14210 ft | 274 kts | 134° |
| 2026-04-28 10:31 | 21.88166 | 38.83612 | 14068 ft | 273 kts | 134° |
| 2026-04-28 10:32 | 21.87009 | 38.85228 | 13921 ft | 271 kts | 134° |
| 2026-04-28 10:32 | 21.85863 | 38.86829 | 13795 ft | 270 kts | 134° |
| 2026-04-28 10:32 | 21.85128 | 38.87856 | 13692 ft | 269 kts | 134° |
| 2026-04-28 10:32 | 21.83988 | 38.89448 | 13541 ft | 268 kts | 134° |
| 2026-04-28 10:33 | 21.82850 | 38.91038 | 13385 ft | 268 kts | 134° |
| 2026-04-28 10:33 | 21.81714 | 38.92622 | 13245 ft | 266 kts | 134° |
| 2026-04-28 10:33 | 21.80596 | 38.94182 | 13226 ft | 261 kts | 134° |
| 2026-04-28 10:33 | 21.79473 | 38.95741 | 13129 ft | 265 kts | 134° |
| 2026-04-28 10:34 | 21.78332 | 38.97321 | 12999 ft | 269 kts | 133° |
| 2026-04-28 10:34 | 21.77444 | 38.99112 | 12712 ft | 278 kts | 110° |
| 2026-04-28 10:34 | 21.77036 | 39.01143 | 12514 ft | 277 kts | 106° |
| 2026-04-28 10:34 | 21.76661 | 39.03177 | 12203 ft | 278 kts | 106° |
| 2026-04-28 10:35 | 21.76286 | 39.05212 | 11824 ft | 277 kts | 106° |
| 2026-04-28 10:35 | 21.75911 | 39.07231 | 11456 ft | 272 kts | 106° |
| 2026-04-28 10:35 | 21.75543 | 39.09191 | 11075 ft | 269 kts | 106° |
| 2026-04-28 10:35 | 21.75171 | 39.11157 | 10664 ft | 267 kts | 106° |
| 2026-04-28 10:36 | 21.74801 | 39.13106 | 10275 ft | 265 kts | 106° |
| 2026-04-28 10:36 | 21.74433 | 39.15039 | 9896 ft | 263 kts | 106° |
| 2026-04-28 10:36 | 21.74113 | 39.16720 | 9514 ft | 262 kts | 106° |
| 2026-04-28 10:36 | 21.73745 | 39.18637 | 9105 ft | 260 kts | 107° |
| 2026-04-28 10:37 | 21.73377 | 39.20535 | 8687 ft | 258 kts | 106° |
| 2026-04-28 10:37 | 21.73011 | 39.22424 | 8277 ft | 257 kts | 106° |
| 2026-04-28 10:37 | 21.72582 | 39.24262 | 7841 ft | 250 kts | 117° |
| 2026-04-28 10:37 | 21.71521 | 39.25660 | 7429 ft | 239 kts | 149° |
| 2026-04-28 10:38 | 21.70053 | 39.26442 | 7056 ft | 235 kts | 161° |
| 2026-04-28 10:38 | 21.68518 | 39.27037 | 6657 ft | 235 kts | 163° |
| 2026-04-28 10:38 | 21.66976 | 39.27623 | 6260 ft | 235 kts | 162° |
| 2026-04-28 10:38 | 21.65435 | 39.28218 | 5854 ft | 235 kts | 162° |
| 2026-04-28 10:39 | 21.63894 | 39.28816 | 5450 ft | 236 kts | 161° |
| 2026-04-28 10:39 | 21.62354 | 39.29417 | 5040 ft | 235 kts | 161° |
| 2026-04-28 10:39 | 21.60818 | 39.30018 | 4637 ft | 234 kts | 161° |
| 2026-04-28 10:39 | 21.59314 | 39.30606 | 4210 ft | 233 kts | 161° |
| 2026-04-28 10:40 | 21.57788 | 39.31204 | 3804 ft | 233 kts | 162° |
| 2026-04-28 10:40 | 21.56265 | 39.31801 | 3403 ft | 233 kts | 162° |
| 2026-04-28 10:40 | 21.54744 | 39.32394 | 3091 ft | 228 kts | 162° |
| 2026-04-28 10:40 | 21.53278 | 39.32971 | 3046 ft | 224 kts | 162° |
| 2026-04-28 10:41 | 21.51791 | 39.33554 | 3018 ft | 230 kts | 162° |
| 2026-04-28 10:41 | 21.50277 | 39.34146 | 3016 ft | 232 kts | 162° |
| 2026-04-28 10:41 | 21.48771 | 39.34736 | 3016 ft | 228 kts | 162° |
| 2026-04-28 10:41 | 21.47279 | 39.35318 | 3016 ft | 229 kts | 162° |
| 2026-04-28 10:42 | 21.45756 | 39.35773 | 3006 ft | 228 kts | 181° |
| 2026-04-28 10:42 | 21.44286 | 39.35304 | 3020 ft | 223 kts | 219° |
| 2026-04-28 10:42 | 21.43301 | 39.34028 | 3027 ft | 224 kts | 246° |
| 2026-04-28 10:42 | 21.42698 | 39.32482 | 3022 ft | 224 kts | 253° |
| 2026-04-28 10:43 | 21.42173 | 39.30904 | 3012 ft | 224 kts | 255° |
| 2026-04-28 10:43 | 21.42114 | 39.29267 | 3019 ft | 222 kts | 287° |
| 2026-04-28 10:43 | 21.42933 | 39.27926 | 3012 ft | 213 kts | 322° |
| 2026-04-28 10:43 | 21.44166 | 39.27159 | 3008 ft | 199 kts | 333° |
| 2026-04-28 10:44 | 21.45387 | 39.26531 | 2994 ft | 191 kts | 336° |
| 2026-04-28 10:44 | 21.46597 | 39.25997 | 2992 ft | 186 kts | 338° |
| 2026-04-28 10:44 | 21.47802 | 39.25506 | 2998 ft | 186 kts | 339° |
| 2026-04-28 10:44 | 21.49017 | 39.25020 | 3005 ft | 187 kts | 339° |
| 2026-04-28 10:45 | 21.50246 | 39.24534 | 3007 ft | 188 kts | 340° |
| 2026-04-28 10:45 | 21.51458 | 39.24057 | 3000 ft | 188 kts | 339° |
| 2026-04-28 10:45 | 21.52698 | 39.23568 | 2826 ft | 192 kts | 339° |
| 2026-04-28 10:45 | 21.53903 | 39.23092 | 2615 ft | 179 kts | 340° |
| 2026-04-28 10:46 | 21.55006 | 39.22657 | 2408 ft | 158 kts | 339° |
| 2026-04-28 10:46 | 21.55964 | 39.22282 | 2207 ft | 137 kts | 338° |
| 2026-04-28 10:46 | 21.56838 | 39.21934 | 2064 ft | 134 kts | 338° |
| 2026-04-28 10:46 | 21.57725 | 39.21585 | 1874 ft | 137 kts | 338° |
| 2026-04-28 10:47 | 21.58612 | 39.21233 | 1701 ft | 136 kts | 338° |
| 2026-04-28 10:47 | 21.59518 | 39.20875 | 1546 ft | 141 kts | 338° |
| 2026-04-28 10:47 | 21.60450 | 39.20505 | 1355 ft | 143 kts | 338° |
| 2026-04-28 10:47 | 21.61390 | 39.20140 | 1134 ft | 141 kts | 339° |
| 2026-04-28 10:48 | 21.62264 | 39.19801 | 892 ft | 126 kts | 340° |
| 2026-04-28 10:48 | 21.63052 | 39.19458 | 730 ft | 126 kts | 340° |
| 2026-04-28 10:48 | 21.63886 | 39.19128 | 626 ft | 131 kts | 341° |
| 2026-04-28 10:48 | 21.64756 | 39.18806 | 458 ft | 132 kts | 340° |
| 2026-04-28 10:49 | 21.65632 | 39.18456 | 302 ft | 137 kts | 338° |
| 2026-04-28 10:49 | 21.66546 | 39.18087 | 114 ft | 142 kts | 339° |
| 2026-04-28 10:49 | 21.67417 | 39.17737 | 53 ft | 119 kts | 336° |
| 2026-04-28 10:49 | 21.67977 | 39.17532 | 53 ft | 53 kts | 337° |
| 2026-04-28 10:50 | 21.68186 | 39.17441 | 49 ft | 28 kts | 338° |
| 2026-04-28 10:50 | 21.68298 | 39.17369 | 49 ft | 28 kts | 316° |
| 2026-04-28 10:50 | 21.68372 | 39.17268 | 48 ft | 1 kts | 307° |
| 2026-04-28 10:50 | 21.68375 | 39.17265 | 48 ft | 1 kts | 307° |
| 2026-04-28 10:51 | 21.68376 | 39.17262 | 48 ft | 0 kts | 307° |
| 2026-04-28 10:51 | 21.68378 | 39.17260 | 48 ft | 0 kts | 307° |
| 2026-04-28 10:52 | 21.68380 | 39.17257 | 48 ft | 2 kts | 307° |
| 2026-04-28 10:52 | 21.68411 | 39.17213 | 48 ft | 9 kts | 307° |
| 2026-04-28 10:52 | 21.68448 | 39.17160 | 49 ft | 9 kts | 307° |
| 2026-04-28 10:52 | 21.68483 | 39.17108 | 49 ft | 9 kts | 303° |
| 2026-04-28 10:53 | 21.68494 | 39.17042 | 49 ft | 9 kts | 251° |
| 2026-04-28 10:53 | 21.68437 | 39.17016 | 51 ft | 10 kts | 175° |
| 2026-04-28 10:53 | 21.68374 | 39.17038 | 48 ft | 10 kts | 159° |
| 2026-04-28 10:53 | 21.68311 | 39.17064 | 48 ft | 10 kts | 159° |
| 2026-04-28 10:54 | 21.68243 | 39.17090 | 46 ft | 11 kts | 161° |
| 2026-04-28 10:54 | 21.68165 | 39.17120 | 48 ft | 12 kts | 162° |
| 2026-04-28 10:54 | 21.68087 | 39.17149 | 49 ft | 12 kts | 161° |
| 2026-04-28 10:54 | 21.68009 | 39.17180 | 53 ft | 12 kts | 160° |
| 2026-04-28 10:55 | 21.67957 | 39.17200 | 49 ft | 12 kts | 160° |
| 2026-04-28 10:55 | 21.67879 | 39.17231 | 50 ft | 12 kts | 160° |
| 2026-04-28 10:55 | 21.67801 | 39.17262 | 51 ft | 12 kts | 160° |
| 2026-04-28 10:55 | 21.67723 | 39.17293 | 55 ft | 12 kts | 160° |
| 2026-04-28 10:56 | 21.67645 | 39.17324 | 53 ft | 12 kts | 159° |
| 2026-04-28 10:56 | 21.67563 | 39.17357 | 54 ft | 14 kts | 159° |
| 2026-04-28 10:56 | 21.67472 | 39.17394 | 54 ft | 14 kts | 159° |
| 2026-04-28 10:56 | 21.67390 | 39.17427 | 56 ft | 12 kts | 160° |
| 2026-04-28 10:57 | 21.67311 | 39.17457 | 52 ft | 13 kts | 161° |
| 2026-04-28 10:57 | 21.67248 | 39.17478 | 55 ft | 7 kts | 172° |
| 2026-04-28 10:57 | 21.67206 | 39.17449 | 50 ft | 8 kts | 229° |
| 2026-04-28 10:57 | 21.67172 | 39.17399 | 52 ft | 8 kts | 232° |
| 2026-04-28 10:58 | 21.67134 | 39.17353 | 53 ft | 8 kts | 226° |
| 2026-04-28 10:58 | 21.67090 | 39.17312 | 52 ft | 9 kts | 217° |
| 2026-04-28 10:58 | 21.67037 | 39.17280 | 50 ft | 9 kts | 201° |
| 2026-04-28 10:58 | 21.66977 | 39.17263 | 50 ft | 8 kts | 193° |
| 2026-04-28 10:59 | 21.66925 | 39.17258 | 48 ft | 8 kts | 174° |
| 2026-04-28 10:59 | 21.66873 | 39.17269 | 47 ft | 5 kts | 184° |
| 2026-04-28 10:59 | 21.66863 | 39.17254 | 46 ft | 2 kts | 256° |
| 2026-04-28 10:59 | 21.66859 | 39.17235 | 49 ft | 4 kts | 256° |
| 2026-04-28 11:00 | 21.66853 | 39.17205 | 52 ft | 4 kts | 261° |
| 2026-04-28 11:00 | 21.66851 | 39.17186 | 51 ft | 0 kts | 263° |